Wetterdaten: Montag, 08.12.2014
Datum Zeit Temp. Aussen +5cm Feuchte Auss Luftdruck Regen Sonnenschein Regendauer Solar Windben
08.12.2014 00:00 4,6 C 2,8 C 96 % 1017,2 hPa 0,0 l/m 0 min 0 min 0 W/m 16,7 km/h (3 Bft)
08.12.2014 00:02 4,6 C 2,8 C 96 % 1017,2 hPa 0,0 l/m 0 min 0 min 0 W/m 14,6 km/h (3 Bft)
08.12.2014 00:05 4,5 C 2,8 C 96 % 1017,2 hPa 0,0 l/m 0 min 0 min 0 W/m 14,6 km/h (3 Bft)
08.12.2014 00:06 4,5 C 2,8 C 96 % 1017,2 hPa 0,0 l/m 0 min 0 min 0 W/m 16,7 km/h (3 Bft)
08.12.2014 00:08 4,4 C 2,8 C 96 % 1017,2 hPa 0,0 l/m 0 min 0 min 0 W/m 12,6 km/h (3 Bft)
08.12.2014 00:10 4,4 C 2,8 C 96 % 1017,2 hPa 0,0 l/m 0 min 0 min 0 W/m 16,7 km/h (3 Bft)
08.12.2014 00:12 4,4 C 2,8 C 96 % 1017,2 hPa 0,0 l/m 0 min 0 min 0 W/m 10,5 km/h (2 Bft)
08.12.2014 00:14 4,4 C 2,2 C 96 % 1017,2 hPa 0,0 l/m 0 min 0 min 0 W/m 8,4 km/h (2 Bft)
08.12.2014 00:16 4,3 C 2,2 C 96 % 1017,3 hPa 0,0 l/m 0 min 0 min 0 W/m 10,5 km/h (2 Bft)
08.12.2014 00:18 4,3 C 2,2 C 96 % 1017,3 hPa 0,0 l/m 0 min 0 min 0 W/m 12,6 km/h (3 Bft)
08.12.2014 00:20 4,3 C 2,2 C 96 % 1017,3 hPa 0,0 l/m 0 min 0 min 0 W/m 12,6 km/h (3 Bft)
08.12.2014 00:22 4,2 C 2,2 C 96 % 1017,4 hPa 0,0 l/m 0 min 0 min 0 W/m 12,6 km/h (3 Bft)
08.12.2014 00:24 4,2 C 2,2 C 96 % 1017,4 hPa 0,0 l/m 0 min 0 min 0 W/m 10,5 km/h (2 Bft)
08.12.2014 00:26 4,2 C 2,2 C 96 % 1017,4 hPa 0,0 l/m 0 min 0 min 0 W/m 10,5 km/h (2 Bft)
08.12.2014 00:28 4,2 C 2,2 C 96 % 1017,4 hPa 0,0 l/m 0 min 0 min 0 W/m 16,7 km/h (3 Bft)
08.12.2014 00:30 4,1 C 2,2 C 96 % 1017,4 hPa 0,0 l/m 0 min 0 min 0 W/m 12,6 km/h (3 Bft)
08.12.2014 00:32 4,1 C 2,2 C 96 % 1017,4 hPa 0,0 l/m 0 min 0 min 0 W/m 8,4 km/h (2 Bft)
08.12.2014 00:34 4,1 C 2,2 C 96 % 1017,5 hPa 0,0 l/m 0 min 0 min 0 W/m 12,6 km/h (3 Bft)
08.12.2014 00:36 4,0 C 2,2 C 96 % 1017,4 hPa 0,0 l/m 0 min 0 min 0 W/m 16,7 km/h (3 Bft)
08.12.2014 00:38 3,9 C 2,2 C 96 % 1017,4 hPa 0,0 l/m 0 min 0 min 0 W/m 12,6 km/h (3 Bft)
08.12.2014 00:40 3,9 C 2,2 C 96 % 1017,4 hPa 0,0 l/m 0 min 0 min 0 W/m 10,5 km/h (2 Bft)
08.12.2014 00:42 3,9 C 2,2 C 96 % 1017,5 hPa 0,0 l/m 0 min 0 min 0 W/m 10,5 km/h (2 Bft)
08.12.2014 00:44 3,9 C 2,2 C 96 % 1017,4 hPa 0,0 l/m 0 min 0 min 0 W/m 10,5 km/h (2 Bft)
08.12.2014 00:46 3,8 C 1,7 C 96 % 1017,5 hPa 0,0 l/m 0 min 0 min 0 W/m 8,4 km/h (2 Bft)
08.12.2014 00:48 3,8 C 1,7 C 96 % 1017,5 hPa 0,0 l/m 0 min 0 min 0 W/m 8,4 km/h (2 Bft)
08.12.2014 00:50 3,8 C 1,7 C 96 % 1017,4 hPa 0,0 l/m 0 min 0 min 0 W/m 10,5 km/h (2 Bft)
08.12.2014 00:52 3,7 C 1,7 C 96 % 1017,3 hPa 0,0 l/m 0 min 0 min 0 W/m 12,6 km/h (3 Bft)
08.12.2014 00:54 3,7 C 1,7 C 96 % 1017,4 hPa 0,0 l/m 0 min 0 min 0 W/m 16,7 km/h (3 Bft)
08.12.2014 00:56 3,7 C 1,7 C 96 % 1017,5 hPa 0,0 l/m 0 min 0 min 0 W/m 10,5 km/h (2 Bft)
08.12.2014 00:58 3,7 C 1,7 C 96 % 1017,5 hPa 0,0 l/m 0 min 0 min 0 W/m 8,4 km/h (2 Bft)
08.12.2014 01:00 3,6 C 1,7 C 96 % 1017,5 hPa 0,0 l/m 0 min 0 min 0 W/m 12,6 km/h (3 Bft)
08.12.2014 01:02 3,6 C 1,7 C 96 % 1017,5 hPa 0,0 l/m 0 min 0 min 0 W/m 12,6 km/h (3 Bft)
08.12.2014 01:04 3,6 C 1,7 C 96 % 1017,5 hPa 0,0 l/m 0 min 0 min 0 W/m 8,4 km/h (2 Bft)
08.12.2014 01:06 3,5 C 1,7 C 96 % 1017,5 hPa 0,0 l/m 0 min 0 min 0 W/m 12,6 km/h (3 Bft)
08.12.2014 01:08 3,5 C 1,7 C 96 % 1017,6 hPa 0,0 l/m 0 min 0 min 0 W/m 12,6 km/h (3 Bft)
08.12.2014 01:10 3,4 C 1,7 C 96 % 1017,6 hPa 0,0 l/m 0 min 0 min 0 W/m 10,5 km/h (2 Bft)
08.12.2014 01:12 3,4 C 1,7 C 96 % 1017,6 hPa 0,0 l/m 0 min 0 min 0 W/m 12,6 km/h (3 Bft)
08.12.2014 01:14 3,4 C 1,7 C 96 % 1017,6 hPa 0,0 l/m 0 min 0 min 0 W/m 12,6 km/h (3 Bft)
08.12.2014 01:16 3,4 C 1,7 C 96 % 1017,6 hPa 0,0 l/m 0 min 0 min 0 W/m 14,6 km/h (3 Bft)
08.12.2014 01:18 3,3 C 1,7 C 96 % 1017,6 hPa 0,0 l/m 0 min 0 min 0 W/m 10,5 km/h (2 Bft)
08.12.2014 01:20 3,3 C 1,7 C 96 % 1017,6 hPa 0,0 l/m 0 min 0 min 0 W/m 10,5 km/h (2 Bft)
08.12.2014 01:22 3,3 C 1,7 C 96 % 1017,7 hPa 0,0 l/m 0 min 0 min 0 W/m 8,4 km/h (2 Bft)
08.12.2014 01:24 3,3 C 1,7 C 96 % 1017,7 hPa 0,0 l/m 0 min 0 min 0 W/m 10,5 km/h (2 Bft)
08.12.2014 01:26 3,2 C 1,7 C 96 % 1017,7 hPa 0,0 l/m 0 min 0 min 0 W/m 12,6 km/h (3 Bft)
08.12.2014 01:28 3,2 C 1,7 C 96 % 1017,7 hPa 0,0 l/m 0 min 0 min 0 W/m 12,6 km/h (3 Bft)
08.12.2014 01:30 3,2 C 1,7 C 96 % 1017,7 hPa 0,0 l/m 0 min 0 min 0 W/m 14,6 km/h (3 Bft)
08.12.2014 01:32 3,1 C 1,7 C 96 % 1017,7 hPa 0,0 l/m 0 min 0 min 0 W/m 12,6 km/h (3 Bft)
08.12.2014 01:34 3,1 C 1,7 C 96 % 1017,7 hPa 0,0 l/m 0 min 0 min 0 W/m 12,6 km/h (3 Bft)
08.12.2014 01:36 3,1 C 1,7 C 96 % 1017,7 hPa 0,0 l/m 0 min 0 min 0 W/m 18,8 km/h (3 Bft)
08.12.2014 01:38 3,1 C 1,7 C 96 % 1017,8 hPa 0,0 l/m 0 min 0 min 0 W/m 10,5 km/h (2 Bft)
08.12.2014 01:40 3,1 C 1,7 C 95 % 1017,8 hPa 0,0 l/m 0 min 0 min 0 W/m 14,6 km/h (3 Bft)
08.12.2014 01:42 3,0 C 1,7 C 95 % 1017,8 hPa 0,0 l/m 0 min 0 min 0 W/m 10,5 km/h (2 Bft)
08.12.2014 01:44 3,0 C 1,7 C 95 % 1017,9 hPa 0,0 l/m 0 min 0 min 0 W/m 12,6 km/h (3 Bft)
08.12.2014 01:46 3,0 C 1,1 C 95 % 1017,9 hPa 0,0 l/m 0 min 0 min 0 W/m 10,5 km/h (2 Bft)
08.12.2014 01:48 2,9 C 1,1 C 96 % 1017,9 hPa 0,0 l/m 0 min 0 min 0 W/m 10,5 km/h (2 Bft)
08.12.2014 01:50 2,9 C 1,1 C 96 % 1017,9 hPa 0,0 l/m 0 min 0 min 0 W/m 10,5 km/h (2 Bft)
08.12.2014 01:52 2,9 C 1,1 C 96 % 1017,9 hPa 0,0 l/m 0 min 0 min 0 W/m 10,5 km/h (2 Bft)
08.12.2014 01:54 2,9 C 1,1 C 96 % 1017,9 hPa 0,0 l/m 0 min 0 min 0 W/m 10,5 km/h (2 Bft)
08.12.2014 01:56 2,9 C 1,1 C 96 % 1017,9 hPa 0,0 l/m 0 min 0 min 0 W/m 8,4 km/h (2 Bft)
08.12.2014 01:58 2,9 C 1,1 C 96 % 1017,9 hPa 0,0 l/m 0 min 0 min 0 W/m 10,5 km/h (2 Bft)
08.12.2014 02:00 2,8 C 1,1 C 96 % 1018,0 hPa 0,0 l/m 0 min 0 min 0 W/m 14,6 km/h (3 Bft)
08.12.2014 02:02 2,8 C 1,1 C 96 % 1017,9 hPa 0,0 l/m 0 min 0 min 0 W/m 12,6 km/h (3 Bft)
08.12.2014 02:04 2,8 C 1,1 C 96 % 1018,0 hPa 0,0 l/m 0 min 0 min 0 W/m 12,6 km/h (3 Bft)
08.12.2014 02:06 2,8 C 1,1 C 96 % 1018,0 hPa 0,0 l/m 0 min 0 min 0 W/m 8,4 km/h (2 Bft)
08.12.2014 02:08 2,8 C 1,1 C 96 % 1017,9 hPa 0,0 l/m 0 min 0 min 0 W/m 10,5 km/h (2 Bft)
08.12.2014 02:10 2,8 C 1,1 C 95 % 1018,0 hPa 0,0 l/m 0 min 0 min 0 W/m 8,4 km/h (2 Bft)
08.12.2014 02:12 2,8 C 1,1 C 95 % 1018,0 hPa 0,0 l/m 0 min 0 min 0 W/m 8,4 km/h (2 Bft)
08.12.2014 02:14 2,7 C 1,1 C 95 % 1018,0 hPa 0,0 l/m 0 min 0 min 0 W/m 8,4 km/h (2 Bft)
08.12.2014 02:16 2,7 C 1,1 C 95 % 1018,0 hPa 0,0 l/m 0 min 0 min 0 W/m 12,6 km/h (3 Bft)
08.12.2014 02:18 2,7 C 1,1 C 95 % 1018,0 hPa 0,0 l/m 0 min 0 min 0 W/m 8,4 km/h (2 Bft)
08.12.2014 02:20 2,7 C 1,1 C 95 % 1018,0 hPa 0,0 l/m 0 min 0 min 0 W/m 10,5 km/h (2 Bft)
08.12.2014 02:22 2,7 C 1,1 C 95 % 1018,0 hPa 0,0 l/m 0 min 0 min 0 W/m 8,4 km/h (2 Bft)
08.12.2014 02:24 2,7 C 1,1 C 95 % 1018,0 hPa 0,0 l/m 0 min 0 min 0 W/m 10,5 km/h (2 Bft)
08.12.2014 02:26 2,7 C 1,1 C 95 % 1017,9 hPa 0,0 l/m 0 min 0 min 0 W/m 10,5 km/h (2 Bft)
08.12.2014 02:28 2,7 C 1,1 C 95 % 1018,0 hPa 0,0 l/m 0 min 0 min 0 W/m 12,6 km/h (3 Bft)
08.12.2014 02:30 2,7 C 1,1 C 95 % 1018,0 hPa 0,0 l/m 0 min 0 min 0 W/m 10,5 km/h (2 Bft)
08.12.2014 02:32 2,6 C 1,1 C 96 % 1018,0 hPa 0,0 l/m 0 min 0 min 0 W/m 12,6 km/h (3 Bft)
08.12.2014 02:34 2,6 C 1,1 C 96 % 1018,1 hPa 0,0 l/m 0 min 0 min 0 W/m 10,5 km/h (2 Bft)
08.12.2014 02:36 2,6 C 1,1 C 96 % 1018,1 hPa 0,0 l/m 0 min 0 min 0 W/m 10,5 km/h (2 Bft)
08.12.2014 02:38 2,6 C 1,1 C 96 % 1018,0 hPa 0,0 l/m 0 min 0 min 0 W/m 8,4 km/h (2 Bft)
08.12.2014 02:40 2,6 C 1,1 C 96 % 1018,1 hPa 0,0 l/m 0 min 0 min 0 W/m 8,4 km/h (2 Bft)
08.12.2014 02:42 2,6 C 1,1 C 96 % 1018,1 hPa 0,0 l/m 0 min 0 min 0 W/m 10,5 km/h (2 Bft)
08.12.2014 02:44 2,5 C 1,1 C 96 % 1018,0 hPa 0,0 l/m 0 min 0 min 0 W/m 12,6 km/h (3 Bft)
08.12.2014 02:46 2,5 C 1,1 C 96 % 1017,9 hPa 0,0 l/m 0 min 0 min 0 W/m 10,5 km/h (2 Bft)
08.12.2014 02:48 2,5 C 1,1 C 96 % 1018,1 hPa 0,0 l/m 0 min 0 min 0 W/m 14,6 km/h (3 Bft)
08.12.2014 02:50 2,4 C 1,1 C 96 % 1018,1 hPa 0,0 l/m 0 min 0 min 0 W/m 12,6 km/h (3 Bft)
08.12.2014 02:52 2,4 C 1,1 C 96 % 1018,0 hPa 0,0 l/m 0 min 0 min 0 W/m 10,5 km/h (2 Bft)
08.12.2014 02:54 2,4 C 1,1 C 96 % 1018,0 hPa 0,0 l/m 0 min 0 min 0 W/m 12,6 km/h (3 Bft)
08.12.2014 02:56 2,4 C 1,1 C 96 % 1018,1 hPa 0,0 l/m 0 min 0 min 0 W/m 8,4 km/h (2 Bft)
08.12.2014 02:58 2,4 C 1,1 C 96 % 1018,1 hPa 0,0 l/m 0 min 0 min 0 W/m 12,6 km/h (3 Bft)
08.12.2014 03:00 2,4 C 1,1 C 95 % 1018,0 hPa 0,0 l/m 0 min 0 min 0 W/m 10,5 km/h (2 Bft)
08.12.2014 03:02 2,4 C 1,1 C 96 % 1018,1 hPa 0,0 l/m 0 min 0 min 0 W/m 16,7 km/h (3 Bft)
08.12.2014 03:04 2,4 C 1,1 C 96 % 1018,0 hPa 0,0 l/m 0 min 0 min 0 W/m 12,6 km/h (3 Bft)
08.12.2014 03:06 2,4 C 1,1 C 96 % 1018,1 hPa 0,0 l/m 0 min 0 min 0 W/m 8,4 km/h (2 Bft)
08.12.2014 03:08 2,3 C 1,1 C 96 % 1018,1 hPa 0,0 l/m 0 min 0 min 0 W/m 12,6 km/h (3 Bft)
08.12.2014 03:10 2,3 C 1,1 C 96 % 1018,2 hPa 0,0 l/m 0 min 0 min 0 W/m 16,7 km/h (3 Bft)
08.12.2014 03:12 2,3 C 1,1 C 96 % 1018,1 hPa 0,0 l/m 0 min 0 min 0 W/m 10,5 km/h (2 Bft)
08.12.2014 03:14 2,3 C 1,1 C 96 % 1018,2 hPa 0,0 l/m 0 min 0 min 0 W/m 14,6 km/h (3 Bft)
08.12.2014 03:16 2,3 C 1,1 C 96 % 1018,2 hPa 0,0 l/m 0 min 0 min 0 W/m 12,6 km/h (3 Bft)
08.12.2014 03:18 2,3 C 1,1 C 96 % 1018,1 hPa 0,0 l/m 0 min 0 min 0 W/m 10,5 km/h (2 Bft)
08.12.2014 03:20 2,3 C 1,1 C 96 % 1018,1 hPa 0,0 l/m 0 min 0 min 0 W/m 12,6 km/h (3 Bft)
08.12.2014 03:22 2,3 C 0,6 C 96 % 1018,1 hPa 0,0 l/m 0 min 0 min 0 W/m 8,4 km/h (2 Bft)
08.12.2014 03:24 2,3 C 0,6 C 96 % 1018,0 hPa 0,0 l/m 0 min 0 min 0 W/m 12,6 km/h (3 Bft)
08.12.2014 03:26 2,3 C 0,6 C 96 % 1017,9 hPa 0,0 l/m 0 min 0 min 0 W/m 10,5 km/h (2 Bft)
08.12.2014 03:28 2,3 C 1,1 C 96 % 1018,0 hPa 0,0 l/m 0 min 0 min 0 W/m 12,6 km/h (3 Bft)
08.12.2014 03:30 2,2 C 1,1 C 96 % 1018,0 hPa 0,2 l/m 0 min 0 min 0 W/m 10,5 km/h (2 Bft)
08.12.2014 03:32 2,3 C 1,1 C 96 % 1018,0 hPa 0,0 l/m 0 min 0 min 0 W/m 8,4 km/h (2 Bft)
08.12.2014 03:34 2,2 C 1,1 C 96 % 1018,0 hPa 0,0 l/m 0 min 0 min 0 W/m 14,6 km/h (3 Bft)
08.12.2014 03:36 2,2 C 1,1 C 96 % 1018,0 hPa 0,0 l/m 0 min 0 min 0 W/m 12,6 km/h (3 Bft)
08.12.2014 03:38 2,2 C 1,1 C 96 % 1018,0 hPa 0,0 l/m 0 min 0 min 0 W/m 16,7 km/h (3 Bft)
08.12.2014 03:40 2,2 C 1,1 C 96 % 1018,0 hPa 0,0 l/m 0 min 0 min 0 W/m 14,6 km/h (3 Bft)
08.12.2014 03:42 2,2 C 1,1 C 96 % 1017,9 hPa 0,0 l/m 0 min 0 min 0 W/m 14,6 km/h (3 Bft)
08.12.2014 03:44 2,2 C 1,1 C 96 % 1018,0 hPa 0,0 l/m 0 min 0 min 0 W/m 12,6 km/h (3 Bft)
08.12.2014 03:46 2,2 C 1,1 C 96 % 1018,0 hPa 0,0 l/m 0 min 0 min 0 W/m 10,5 km/h (2 Bft)
08.12.2014 03:48 2,2 C 1,1 C 96 % 1018,1 hPa 0,0 l/m 0 min 0 min 0 W/m 10,5 km/h (2 Bft)
08.12.2014 03:50 2,2 C 1,1 C 96 % 1018,0 hPa 0,0 l/m 0 min 0 min 0 W/m 12,6 km/h (3 Bft)
08.12.2014 03:52 2,2 C 1,1 C 96 % 1018,0 hPa 0,0 l/m 0 min 0 min 0 W/m 12,6 km/h (3 Bft)
08.12.2014 03:54 2,2 C 0,6 C 96 % 1018,0 hPa 0,0 l/m 0 min 0 min 0 W/m 14,6 km/h (3 Bft)
08.12.2014 03:56 2,2 C 0,6 C 96 % 1018,0 hPa 0,0 l/m 0 min 0 min 0 W/m 14,6 km/h (3 Bft)
08.12.2014 03:58 2,2 C 0,6 C 96 % 1018,0 hPa 0,0 l/m 0 min 0 min 0 W/m 12,6 km/h (3 Bft)
08.12.2014 04:00 2,2 C 0,6 C 96 % 1018,0 hPa 0,0 l/m 0 min 0 min 0 W/m 10,5 km/h (2 Bft)
08.12.2014 04:02 2,1 C 0,6 C 96 % 1018,0 hPa 0,0 l/m 0 min 0 min 0 W/m 10,5 km/h (2 Bft)
08.12.2014 04:04 2,1 C 0,6 C 96 % 1018,0 hPa 0,0 l/m 0 min 0 min 0 W/m 14,6 km/h (3 Bft)
08.12.2014 04:06 2,1 C 0,6 C 96 % 1017,9 hPa 0,0 l/m 0 min 0 min 0 W/m 12,6 km/h (3 Bft)
08.12.2014 04:08 2,1 C 0,6 C 96 % 1018,0 hPa 0,0 l/m 0 min 0 min 0 W/m 14,6 km/h (3 Bft)
08.12.2014 04:10 2,1 C 0,6 C 96 % 1018,0 hPa 0,0 l/m 0 min 0 min 0 W/m 10,5 km/h (2 Bft)
08.12.2014 04:12 2,1 C 0,6 C 96 % 1018,0 hPa 0,0 l/m 0 min 0 min 0 W/m 12,6 km/h (3 Bft)
08.12.2014 04:14 2,1 C 0,6 C 96 % 1018,1 hPa 0,0 l/m 0 min 0 min 0 W/m 16,7 km/h (3 Bft)
08.12.2014 04:16 2,1 C 0,6 C 96 % 1018,0 hPa 0,0 l/m 0 min 0 min 0 W/m 16,7 km/h (3 Bft)
08.12.2014 04:18 2,1 C 0,6 C 96 % 1017,9 hPa 0,0 l/m 0 min 0 min 0 W/m 16,7 km/h (3 Bft)
08.12.2014 04:20 2,1 C 0,6 C 96 % 1018,0 hPa 0,0 l/m 0 min 0 min 0 W/m 12,6 km/h (3 Bft)
08.12.2014 04:22 2,1 C 0,6 C 96 % 1018,0 hPa 0,0 l/m 0 min 0 min 0 W/m 14,6 km/h (3 Bft)
08.12.2014 04:24 2,1 C 0,6 C 96 % 1017,9 hPa 0,0 l/m 0 min 0 min 0 W/m 10,5 km/h (2 Bft)
08.12.2014 04:26 2,1 C 0,6 C 96 % 1017,9 hPa 0,0 l/m 0 min 0 min 0 W/m 12,6 km/h (3 Bft)
08.12.2014 04:28 2,1 C 0,6 C 96 % 1017,9 hPa 0,0 l/m 0 min 0 min 0 W/m 18,8 km/h (3 Bft)
08.12.2014 04:30 2,1 C 0,6 C 96 % 1017,9 hPa 0,0 l/m 0 min 0 min 0 W/m 16,7 km/h (3 Bft)
08.12.2014 04:32 2,1 C 0,6 C 96 % 1018,0 hPa 0,0 l/m 0 min 0 min 0 W/m 12,6 km/h (3 Bft)
08.12.2014 04:34 2,1 C 0,6 C 96 % 1017,9 hPa 0,0 l/m 0 min 0 min 0 W/m 12,6 km/h (3 Bft)
08.12.2014 04:36 2,1 C 0,6 C 96 % 1018,0 hPa 0,0 l/m 0 min 0 min 0 W/m 14,6 km/h (3 Bft)
08.12.2014 04:38 2,1 C 0,6 C 96 % 1017,9 hPa 0,0 l/m 0 min 0 min 0 W/m 10,5 km/h (2 Bft)
08.12.2014 04:40 2,0 C 0,6 C 96 % 1018,0 hPa 0,0 l/m 0 min 0 min 0 W/m 10,5 km/h (2 Bft)
08.12.2014 04:42 2,0 C 0,6 C 96 % 1018,0 hPa 0,0 l/m 0 min 0 min 0 W/m 12,6 km/h (3 Bft)
08.12.2014 04:44 2,0 C 0,6 C 96 % 1018,0 hPa 0,0 l/m 0 min 0 min 0 W/m 12,6 km/h (3 Bft)
08.12.2014 04:46 2,0 C 0,6 C 96 % 1018,0 hPa 0,0 l/m 0 min 0 min 0 W/m 18,8 km/h (3 Bft)
08.12.2014 04:48 2,0 C 0,6 C 96 % 1018,0 hPa 0,0 l/m 0 min 0 min 0 W/m 16,7 km/h (3 Bft)
08.12.2014 04:50 2,0 C 0,6 C 96 % 1018,1 hPa 0,0 l/m 0 min 0 min 0 W/m 14,6 km/h (3 Bft)
08.12.2014 04:52 2,0 C 0,6 C 96 % 1018,0 hPa 0,0 l/m 0 min 0 min 0 W/m 12,6 km/h (3 Bft)
08.12.2014 04:54 2,0 C 0,6 C 96 % 1018,1 hPa 0,0 l/m 0 min 0 min 0 W/m 16,7 km/h (3 Bft)
08.12.2014 04:56 1,9 C 0,6 C 96 % 1018,0 hPa 0,0 l/m 0 min 0 min 0 W/m 16,7 km/h (3 Bft)
08.12.2014 04:58 1,9 C 0,6 C 96 % 1018,0 hPa 0,0 l/m 0 min 0 min 0 W/m 14,6 km/h (3 Bft)
08.12.2014 05:00 1,9 C 0,6 C 96 % 1018,0 hPa 0,0 l/m 0 min 0 min 0 W/m 16,7 km/h (3 Bft)
08.12.2014 05:02 1,9 C 0,6 C 96 % 1018,0 hPa 0,0 l/m 0 min 0 min 0 W/m 16,7 km/h (3 Bft)
08.12.2014 05:04 1,9 C 0,6 C 96 % 1018,0 hPa 0,0 l/m 0 min 0 min 0 W/m 14,6 km/h (3 Bft)
08.12.2014 05:06 1,9 C 0,6 C 96 % 1018,0 hPa 0,0 l/m 0 min 0 min 0 W/m 14,6 km/h (3 Bft)
08.12.2014 05:08 1,9 C 0,6 C 96 % 1017,9 hPa 0,0 l/m 0 min 0 min 0 W/m 14,6 km/h (3 Bft)
08.12.2014 05:10 1,9 C 0,6 C 96 % 1018,0 hPa 0,0 l/m 0 min 0 min 0 W/m 14,6 km/h (3 Bft)
08.12.2014 05:12 1,9 C 0,6 C 96 % 1018,0 hPa 0,0 l/m 0 min 0 min 0 W/m 16,7 km/h (3 Bft)
08.12.2014 05:14 1,9 C 0,6 C 96 % 1018,0 hPa 0,0 l/m 0 min 0 min 0 W/m 14,6 km/h (3 Bft)
08.12.2014 05:16 1,9 C 0,6 C 96 % 1018,0 hPa 0,0 l/m 0 min 0 min 0 W/m 16,7 km/h (3 Bft)
08.12.2014 05:18 1,9 C 0,6 C 96 % 1017,9 hPa 0,0 l/m 0 min 0 min 0 W/m 14,6 km/h (3 Bft)
08.12.2014 05:20 1,9 C 0,6 C 96 % 1017,9 hPa 0,0 l/m 0 min 0 min 0 W/m 14,6 km/h (3 Bft)
08.12.2014 05:22 1,9 C 0,6 C 96 % 1017,9 hPa 0,0 l/m 0 min 0 min 0 W/m 16,7 km/h (3 Bft)
08.12.2014 05:24 1,9 C 0,6 C 96 % 1017,9 hPa 0,0 l/m 0 min 0 min 0 W/m 18,8 km/h (3 Bft)
08.12.2014 05:26 1,9 C 0,6 C 96 % 1017,9 hPa 0,0 l/m 0 min 0 min 0 W/m 18,8 km/h (3 Bft)
08.12.2014 05:28 1,9 C 0,6 C 96 % 1018,0 hPa 0,0 l/m 0 min 0 min 0 W/m 23,0 km/h (4 Bft)
08.12.2014 05:30 1,9 C 0,6 C 96 % 1018,0 hPa 0,0 l/m 0 min 0 min 0 W/m 16,7 km/h (3 Bft)
08.12.2014 05:32 1,8 C 0,6 C 96 % 1017,9 hPa 0,0 l/m 0 min 0 min 0 W/m 23,0 km/h (4 Bft)
08.12.2014 05:34 1,8 C 0,6 C 96 % 1017,9 hPa 0,0 l/m 0 min 0 min 0 W/m 16,7 km/h (3 Bft)
08.12.2014 05:36 1,8 C 0,6 C 96 % 1017,9 hPa 0,0 l/m 0 min 0 min 0 W/m 20,9 km/h (4 Bft)
08.12.2014 05:38 1,8 C 0,6 C 96 % 1017,8 hPa 0,0 l/m 0 min 0 min 0 W/m 16,7 km/h (3 Bft)
08.12.2014 05:40 1,8 C 0,6 C 96 % 1017,9 hPa 0,0 l/m 0 min 0 min 0 W/m 14,6 km/h (3 Bft)
08.12.2014 05:42 1,8 C 0,6 C 96 % 1017,8 hPa 0,0 l/m 0 min 0 min 0 W/m 20,9 km/h (4 Bft)
08.12.2014 05:44 1,8 C 0,6 C 96 % 1017,9 hPa 0,0 l/m 0 min 0 min 0 W/m 18,8 km/h (3 Bft)
08.12.2014 05:46 1,8 C 0,6 C 96 % 1017,8 hPa 0,0 l/m 0 min 0 min 0 W/m 16,7 km/h (3 Bft)
08.12.2014 05:48 1,8 C 0,6 C 96 % 1017,9 hPa 0,0 l/m 0 min 0 min 0 W/m 18,8 km/h (3 Bft)
08.12.2014 05:50 1,8 C 0,6 C 96 % 1017,8 hPa 0,0 l/m 0 min 0 min 0 W/m 18,8 km/h (3 Bft)
08.12.2014 05:52 1,8 C 0,6 C 96 % 1017,9 hPa 0,0 l/m 0 min 0 min 0 W/m 12,6 km/h (3 Bft)
08.12.2014 05:54 1,8 C 0,6 C 96 % 1017,9 hPa 0,0 l/m 0 min 0 min 0 W/m 18,8 km/h (3 Bft)
08.12.2014 05:56 1,8 C 0,6 C 96 % 1017,9 hPa 0,0 l/m 0 min 0 min 0 W/m 16,7 km/h (3 Bft)
08.12.2014 05:58 1,8 C 0,6 C 96 % 1017,9 hPa 0,0 l/m 0 min 0 min 0 W/m 12,6 km/h (3 Bft)
08.12.2014 06:00 1,8 C 0,6 C 96 % 1017,9 hPa 0,0 l/m 0 min 0 min 0 W/m 18,8 km/h (3 Bft)
08.12.2014 06:02 1,7 C 0,6 C 96 % 1017,9 hPa 0,0 l/m 0 min 0 min 0 W/m 14,6 km/h (3 Bft)
08.12.2014 06:05 1,7 C 0,6 C 96 % 1017,8 hPa 0,0 l/m 0 min 0 min 0 W/m 16,7 km/h (3 Bft)
08.12.2014 06:06 1,7 C 0,6 C 96 % 1017,8 hPa 0,0 l/m 0 min 0 min 0 W/m 16,7 km/h (3 Bft)
08.12.2014 06:08 1,7 C 0,6 C 96 % 1017,8 hPa 0,0 l/m 0 min 0 min 0 W/m 16,7 km/h (3 Bft)
08.12.2014 06:10 1,7 C 0,0 C 96 % 1017,9 hPa 0,0 l/m 0 min 0 min 0 W/m 12,6 km/h (3 Bft)
08.12.2014 06:12 1,7 C 0,0 C 96 % 1017,9 hPa 0,0 l/m 0 min 0 min 0 W/m 20,9 km/h (4 Bft)
08.12.2014 06:14 1,7 C 0,6 C 96 % 1017,9 hPa 0,0 l/m 0 min 0 min 0 W/m 12,6 km/h (3 Bft)
08.12.2014 06:16 1,7 C 0,6 C 96 % 1017,9 hPa 0,0 l/m 0 min 0 min 0 W/m 14,6 km/h (3 Bft)
08.12.2014 06:18 1,7 C 0,6 C 96 % 1017,8 hPa 0,0 l/m 0 min 0 min 0 W/m 16,7 km/h (3 Bft)
08.12.2014 06:20 1,6 C 0,6 C 96 % 1017,9 hPa 0,0 l/m 0 min 0 min 0 W/m 16,7 km/h (3 Bft)
08.12.2014 06:22 1,6 C 0,6 C 96 % 1018,0 hPa 0,0 l/m 0 min 0 min 0 W/m 16,7 km/h (3 Bft)
08.12.2014 06:24 1,6 C 0,0 C 96 % 1018,0 hPa 0,0 l/m 0 min 0 min 0 W/m 12,6 km/h (3 Bft)
08.12.2014 06:26 1,6 C 0,0 C 96 % 1018,0 hPa 0,0 l/m 0 min 0 min 0 W/m 10,5 km/h (2 Bft)
08.12.2014 06:28 1,6 C 0,0 C 96 % 1018,0 hPa 0,0 l/m 0 min 0 min 0 W/m 10,5 km/h (2 Bft)
08.12.2014 06:30 1,6 C 0,0 C 96 % 1018,0 hPa 0,0 l/m 0 min 0 min 0 W/m 18,8 km/h (3 Bft)
08.12.2014 06:32 1,6 C 0,0 C 96 % 1018,0 hPa 0,0 l/m 0 min 0 min 0 W/m 10,5 km/h (2 Bft)
08.12.2014 06:34 1,6 C 0,0 C 96 % 1018,0 hPa 0,0 l/m 0 min 0 min 0 W/m 10,5 km/h (2 Bft)
08.12.2014 06:36 1,6 C 0,0 C 96 % 1018,0 hPa 0,0 l/m 0 min 0 min 0 W/m 12,6 km/h (3 Bft)
08.12.2014 06:38 1,6 C 0,6 C 96 % 1018,0 hPa 0,0 l/m 0 min 0 min 0 W/m 12,6 km/h (3 Bft)
08.12.2014 06:40 1,6 C 0,0 C 96 % 1018,1 hPa 0,0 l/m 0 min 0 min 0 W/m 12,6 km/h (3 Bft)
08.12.2014 06:42 1,6 C 0,0 C 96 % 1018,0 hPa 0,0 l/m 0 min 0 min 0 W/m 16,7 km/h (3 Bft)
08.12.2014 06:44 1,6 C 0,0 C 96 % 1018,1 hPa 0,0 l/m 0 min 0 min 0 W/m 10,5 km/h (2 Bft)
08.12.2014 06:46 1,6 C 0,0 C 96 % 1018,1 hPa 0,0 l/m 0 min 0 min 0 W/m 12,6 km/h (3 Bft)
08.12.2014 06:48 1,6 C 0,0 C 96 % 1018,0 hPa 0,0 l/m 0 min 0 min 0 W/m 10,5 km/h (2 Bft)
08.12.2014 06:50 1,5 C 0,0 C 96 % 1018,0 hPa 0,0 l/m 0 min 0 min 0 W/m 12,6 km/h (3 Bft)
08.12.2014 06:52 1,5 C 0,0 C 96 % 1018,0 hPa 0,0 l/m 0 min 0 min 0 W/m 12,6 km/h (3 Bft)
08.12.2014 06:54 1,5 C 0,0 C 96 % 1018,0 hPa 0,0 l/m 0 min 0 min 0 W/m 14,6 km/h (3 Bft)
08.12.2014 06:56 1,5 C 0,0 C 96 % 1018,0 hPa 0,0 l/m 0 min 0 min 0 W/m 14,6 km/h (3 Bft)
08.12.2014 06:58 1,5 C 0,0 C 96 % 1018,0 hPa 0,0 l/m 0 min 0 min 0 W/m 14,6 km/h (3 Bft)
08.12.2014 07:00 1,5 C 0,0 C 96 % 1017,9 hPa 0,0 l/m 0 min 0 min 0 W/m 12,6 km/h (3 Bft)
08.12.2014 07:02 1,5 C 0,0 C 96 % 1017,9 hPa 0,0 l/m 0 min 0 min 0 W/m 10,5 km/h (2 Bft)
08.12.2014 07:04 1,4 C 0,0 C 96 % 1017,9 hPa 0,0 l/m 0 min 0 min 0 W/m 8,4 km/h (2 Bft)
08.12.2014 07:06 1,4 C 0,0 C 96 % 1017,9 hPa 0,0 l/m 0 min 0 min 0 W/m 10,5 km/h (2 Bft)
08.12.2014 07:08 1,4 C 0,0 C 96 % 1017,9 hPa 0,0 l/m 0 min 0 min 0 W/m 10,5 km/h (2 Bft)
08.12.2014 07:10 1,4 C 0,0 C 96 % 1017,9 hPa 0,0 l/m 0 min 0 min 0 W/m 12,6 km/h (3 Bft)
08.12.2014 07:12 1,4 C -0,2 C 95 % 1017,9 hPa 0,0 l/m 0 min 0 min 0 W/m 10,5 km/h (2 Bft)
08.12.2014 07:14 1,4 C -0,2 C 95 % 1017,8 hPa 0,0 l/m 0 min 0 min 0 W/m 14,6 km/h (3 Bft)
08.12.2014 07:16 1,4 C -0,2 C 95 % 1017,8 hPa 0,0 l/m 0 min 0 min 0 W/m 14,6 km/h (3 Bft)
08.12.2014 07:18 1,4 C -0,2 C 95 % 1017,9 hPa 0,0 l/m 0 min 0 min 0 W/m 14,6 km/h (3 Bft)
08.12.2014 07:20 1,4 C 0,0 C 95 % 1017,8 hPa 0,0 l/m 0 min 0 min 0 W/m 14,6 km/h (3 Bft)
08.12.2014 07:22 1,4 C -0,2 C 95 % 1017,8 hPa 0,0 l/m 0 min 0 min 0 W/m 10,5 km/h (2 Bft)
08.12.2014 07:24 1,4 C -0,2 C 95 % 1017,8 hPa 0,0 l/m 0 min 0 min 0 W/m 10,5 km/h (2 Bft)
08.12.2014 07:26 1,4 C -0,2 C 95 % 1017,9 hPa 0,0 l/m 0 min 0 min 0 W/m 10,5 km/h (2 Bft)
08.12.2014 07:28 1,4 C -0,3 C 95 % 1017,9 hPa 0,0 l/m 0 min 0 min 0 W/m 10,5 km/h (2 Bft)
08.12.2014 07:30 1,3 C 0,0 C 95 % 1017,9 hPa 0,0 l/m 0 min 0 min 0 W/m 12,6 km/h (3 Bft)
08.12.2014 07:32 1,3 C 0,0 C 95 % 1017,9 hPa 0,0 l/m 0 min 0 min 0 W/m 10,5 km/h (2 Bft)
08.12.2014 07:34 1,3 C 0,0 C 95 % 1017,9 hPa 0,0 l/m 0 min 0 min 0 W/m 12,6 km/h (3 Bft)
08.12.2014 07:36 1,3 C 0,0 C 95 % 1017,9 hPa 0,0 l/m 0 min 0 min 0 W/m 14,6 km/h (3 Bft)
08.12.2014 07:38 1,3 C 0,0 C 95 % 1018,0 hPa 0,0 l/m 0 min 0 min 0 W/m 10,5 km/h (2 Bft)
08.12.2014 07:40 1,3 C 0,0 C 95 % 1017,9 hPa 0,0 l/m 0 min 0 min 0 W/m 10,5 km/h (2 Bft)
08.12.2014 07:42 1,3 C 0,0 C 95 % 1018,0 hPa 0,0 l/m 0 min 0 min 0 W/m 12,6 km/h (3 Bft)
08.12.2014 07:44 1,3 C 0,0 C 95 % 1018,0 hPa 0,0 l/m 0 min 0 min 0 W/m 8,4 km/h (2 Bft)
08.12.2014 07:46 1,3 C 0,0 C 95 % 1018,0 hPa 0,0 l/m 0 min 0 min 0 W/m 8,4 km/h (2 Bft)
08.12.2014 07:48 1,2 C 0,0 C 95 % 1017,9 hPa 0,0 l/m 0 min 0 min 0 W/m 10,5 km/h (2 Bft)
08.12.2014 07:50 1,2 C -0,6 C 95 % 1018,0 hPa 0,0 l/m 0 min 0 min 0 W/m 14,6 km/h (3 Bft)
08.12.2014 07:52 1,2 C 0,0 C 95 % 1018,0 hPa 0,0 l/m 0 min 0 min 0 W/m 14,6 km/h (3 Bft)
08.12.2014 07:54 1,2 C -0,6 C 95 % 1018,0 hPa 0,0 l/m 0 min 0 min 0 W/m 10,5 km/h (2 Bft)
08.12.2014 07:56 1,2 C 0,0 C 95 % 1018,0 hPa 0,0 l/m 0 min 0 min 0 W/m 12,6 km/h (3 Bft)
08.12.2014 07:58 1,2 C 0,0 C 95 % 1018,0 hPa 0,0 l/m 0 min 0 min 0 W/m 14,6 km/h (3 Bft)
08.12.2014 08:00 1,2 C 0,0 C 95 % 1017,9 hPa 0,0 l/m 0 min 0 min 0 W/m 12,6 km/h (3 Bft)
08.12.2014 08:02 1,2 C 0,0 C 95 % 1018,0 hPa 0,0 l/m 0 min 0 min 0 W/m 14,6 km/h (3 Bft)
08.12.2014 08:04 1,2 C 0,0 C 95 % 1017,9 hPa 0,0 l/m 0 min 0 min 0 W/m 12,6 km/h (3 Bft)
08.12.2014 08:06 1,2 C 0,0 C 95 % 1017,9 hPa 0,0 l/m 0 min 0 min 0 W/m 12,6 km/h (3 Bft)
08.12.2014 08:08 1,2 C 0,0 C 95 % 1017,9 hPa 0,0 l/m 0 min 0 min 0 W/m 14,6 km/h (3 Bft)
08.12.2014 08:10 1,2 C 0,0 C 95 % 1017,9 hPa 0,0 l/m 0 min 0 min 0 W/m 12,6 km/h (3 Bft)
08.12.2014 08:12 1,2 C -0,6 C 95 % 1017,9 hPa 0,0 l/m 0 min 0 min 0 W/m 10,5 km/h (2 Bft)
08.12.2014 08:14 1,2 C -0,6 C 95 % 1017,9 hPa 0,0 l/m 0 min 0 min 0 W/m 8,4 km/h (2 Bft)
08.12.2014 08:16 1,1 C -0,6 C 95 % 1017,8 hPa 0,0 l/m 0 min 0 min 0 W/m 10,5 km/h (2 Bft)
08.12.2014 08:18 1,1 C 0,0 C 95 % 1017,9 hPa 0,0 l/m 0 min 0 min 0 W/m 12,6 km/h (3 Bft)
08.12.2014 08:20 1,1 C 0,0 C 95 % 1017,9 hPa 0,0 l/m 0 min 0 min 0 W/m 12,6 km/h (3 Bft)
08.12.2014 08:22 1,1 C 0,0 C 95 % 1017,9 hPa 0,0 l/m 0 min 0 min 5 W/m 12,6 km/h (3 Bft)
08.12.2014 08:24 1,1 C -0,6 C 95 % 1017,9 hPa 0,0 l/m 0 min 0 min 5 W/m 10,5 km/h (2 Bft)
08.12.2014 08:26 1,1 C -0,6 C 95 % 1017,9 hPa 0,0 l/m 0 min 0 min 6 W/m 12,6 km/h (3 Bft)
08.12.2014 08:28 1,1 C 0,0 C 95 % 1017,9 hPa 0,0 l/m 0 min 0 min 7 W/m 14,6 km/h (3 Bft)
08.12.2014 08:30 1,1 C 0,0 C 95 % 1017,9 hPa 0,0 l/m 0 min 0 min 9 W/m 14,6 km/h (3 Bft)
08.12.2014 08:32 1,1 C 0,0 C 95 % 1017,9 hPa 0,0 l/m 0 min 0 min 11 W/m 10,5 km/h (2 Bft)
08.12.2014 08:34 1,1 C 0,0 C 95 % 1017,9 hPa 0,0 l/m 0 min 0 min 11 W/m 14,6 km/h (3 Bft)
08.12.2014 08:36 1,1 C 0,0 C 95 % 1017,9 hPa 0,0 l/m 0 min 0 min 12 W/m 10,5 km/h (2 Bft)
08.12.2014 08:38 1,1 C 0,0 C 95 % 1017,9 hPa 0,0 l/m 0 min 0 min 12 W/m 12,6 km/h (3 Bft)
08.12.2014 08:40 1,1 C 0,0 C 95 % 1017,9 hPa 0,0 l/m 2 min 0 min 13 W/m 18,8 km/h (3 Bft)
08.12.2014 08:42 1,1 C 0,0 C 95 % 1017,9 hPa 0,0 l/m 2 min 0 min 14 W/m 12,6 km/h (3 Bft)
08.12.2014 08:44 1,1 C 0,0 C 95 % 1017,9 hPa 0,0 l/m 2 min 0 min 15 W/m 10,5 km/h (2 Bft)
08.12.2014 08:46 1,2 C 0,0 C 95 % 1018,0 hPa 0,0 l/m 2 min 0 min 16 W/m 12,6 km/h (3 Bft)
08.12.2014 08:48 1,2 C 0,0 C 95 % 1017,9 hPa 0,0 l/m 2 min 0 min 18 W/m 14,6 km/h (3 Bft)
08.12.2014 08:50 1,2 C 0,0 C 95 % 1018,0 hPa 0,0 l/m 0 min 0 min 19 W/m 14,6 km/h (3 Bft)
08.12.2014 08:52 1,2 C 0,0 C 95 % 1018,0 hPa 0,0 l/m 0 min 0 min 20 W/m 14,6 km/h (3 Bft)
08.12.2014 08:54 1,2 C 0,0 C 95 % 1017,9 hPa 0,0 l/m 0 min 0 min 22 W/m 16,7 km/h (3 Bft)
08.12.2014 08:56 1,2 C 0,0 C 95 % 1018,0 hPa 0,0 l/m 0 min 0 min 23 W/m 14,6 km/h (3 Bft)
08.12.2014 08:58 1,2 C 0,0 C 95 % 1017,9 hPa 0,0 l/m 0 min 0 min 25 W/m 8,4 km/h (2 Bft)
08.12.2014 09:00 1,2 C 0,0 C 95 % 1017,9 hPa 0,0 l/m 0 min 0 min 26 W/m 10,5 km/h (2 Bft)
08.12.2014 09:02 1,2 C 0,0 C 95 % 1017,9 hPa 0,0 l/m 0 min 0 min 28 W/m 8,4 km/h (2 Bft)
08.12.2014 09:04 1,2 C 0,0 C 95 % 1018,0 hPa 0,0 l/m 0 min 0 min 30 W/m 10,5 km/h (2 Bft)
08.12.2014 09:06 1,2 C 0,0 C 95 % 1018,0 hPa 0,0 l/m 0 min 0 min 32 W/m 12,6 km/h (3 Bft)
08.12.2014 09:08 1,2 C 0,0 C 95 % 1018,0 hPa 0,0 l/m 0 min 0 min 34 W/m 14,6 km/h (3 Bft)
08.12.2014 09:10 1,2 C 0,0 C 95 % 1018,0 hPa 0,0 l/m 0 min 0 min 36 W/m 14,6 km/h (3 Bft)
08.12.2014 09:12 1,2 C 0,0 C 95 % 1018,0 hPa 0,0 l/m 0 min 0 min 39 W/m 8,4 km/h (2 Bft)
08.12.2014 09:14 1,2 C 0,0 C 95 % 1018,0 hPa 0,0 l/m 0 min 0 min 41 W/m 14,6 km/h (3 Bft)
08.12.2014 09:16 1,2 C 0,0 C 95 % 1018,0 hPa 0,0 l/m 0 min 0 min 45 W/m 12,6 km/h (3 Bft)
08.12.2014 09:18 1,2 C 0,0 C 95 % 1018,0 hPa 0,0 l/m 0 min 0 min 46 W/m 14,6 km/h (3 Bft)
08.12.2014 09:20 1,2 C 0,0 C 95 % 1018,0 hPa 0,0 l/m 2 min 0 min 49 W/m 14,6 km/h (3 Bft)
08.12.2014 09:22 1,2 C 0,0 C 95 % 1018,0 hPa 0,0 l/m 2 min 0 min 52 W/m 12,6 km/h (3 Bft)
08.12.2014 09:24 1,3 C 0,0 C 95 % 1018,0 hPa 0,0 l/m 2 min 0 min 55 W/m 12,6 km/h (3 Bft)
08.12.2014 09:26 1,3 C 0,0 C 95 % 1018,1 hPa 0,0 l/m 2 min 0 min 58 W/m 16,7 km/h (3 Bft)
08.12.2014 09:28 1,3 C 0,0 C 95 % 1018,1 hPa 0,0 l/m 2 min 0 min 60 W/m 14,6 km/h (3 Bft)
08.12.2014 09:30 1,3 C 0,0 C 95 % 1018,0 hPa 0,0 l/m 2 min 0 min 63 W/m 18,8 km/h (3 Bft)
08.12.2014 09:32 1,3 C 0,0 C 95 % 1018,0 hPa 0,0 l/m 2 min 0 min 66 W/m 12,6 km/h (3 Bft)
08.12.2014 09:34 1,3 C 0,0 C 94 % 1018,1 hPa 0,0 l/m 2 min 0 min 68 W/m 10,5 km/h (2 Bft)
08.12.2014 09:36 1,3 C 0,0 C 94 % 1018,1 hPa 0,0 l/m 2 min 0 min 71 W/m 18,8 km/h (3 Bft)
08.12.2014 09:38 1,4 C 0,0 C 94 % 1018,1 hPa 0,0 l/m 2 min 0 min 74 W/m 18,8 km/h (3 Bft)
08.12.2014 09:40 1,4 C 0,6 C 94 % 1018,2 hPa 0,0 l/m 2 min 0 min 76 W/m 12,6 km/h (3 Bft)
08.12.2014 09:42 1,4 C 0,0 C 94 % 1018,2 hPa 0,0 l/m 2 min 0 min 77 W/m 14,6 km/h (3 Bft)
08.12.2014 09:44 1,4 C 0,0 C 94 % 1018,2 hPa 0,0 l/m 2 min 0 min 81 W/m 14,6 km/h (3 Bft)
08.12.2014 09:46 1,4 C 0,0 C 94 % 1018,1 hPa 0,0 l/m 2 min 0 min 85 W/m 10,5 km/h (2 Bft)
08.12.2014 09:48 1,5 C 0,6 C 95 % 1018,2 hPa 0,0 l/m 2 min 0 min 88 W/m 14,6 km/h (3 Bft)
08.12.2014 09:50 1,5 C 0,6 C 95 % 1018,1 hPa 0,0 l/m 2 min 0 min 91 W/m 12,6 km/h (3 Bft)
08.12.2014 09:52 1,5 C 0,6 C 94 % 1018,1 hPa 0,0 l/m 2 min 0 min 93 W/m 16,7 km/h (3 Bft)
08.12.2014 09:54 1,6 C 0,6 C 94 % 1018,1 hPa 0,0 l/m 2 min 0 min 91 W/m 18,8 km/h (3 Bft)
08.12.2014 09:56 1,6 C 0,6 C 94 % 1018,0 hPa 0,0 l/m 2 min 0 min 81 W/m 14,6 km/h (3 Bft)
08.12.2014 09:58 1,6 C 0,6 C 94 % 1018,0 hPa 0,0 l/m 0 min 0 min 80 W/m 12,6 km/h (3 Bft)
08.12.2014 10:00 1,6 C 0,6 C 94 % 1018,1 hPa 0,0 l/m 0 min 0 min 82 W/m 14,6 km/h (3 Bft)
08.12.2014 10:02 1,7 C 0,6 C 94 % 1018,0 hPa 0,0 l/m 0 min 0 min 80 W/m 18,8 km/h (3 Bft)
08.12.2014 10:04 1,7 C 0,6 C 94 % 1018,0 hPa 0,0 l/m 0 min 0 min 81 W/m 12,6 km/h (3 Bft)
08.12.2014 10:06 1,7 C 0,6 C 94 % 1018,1 hPa 0,0 l/m 0 min 0 min 84 W/m 18,8 km/h (3 Bft)
08.12.2014 10:08 1,7 C 0,6 C 94 % 1018,0 hPa 0,0 l/m 2 min 0 min 102 W/m 10,5 km/h (2 Bft)
08.12.2014 10:10 1,7 C 0,6 C 94 % 1018,1 hPa 0,0 l/m 2 min 0 min 113 W/m 12,6 km/h (3 Bft)
08.12.2014 10:12 1,7 C 0,6 C 94 % 1018,0 hPa 0,0 l/m 2 min 0 min 113 W/m 10,5 km/h (2 Bft)
08.12.2014 10:14 1,8 C 0,6 C 94 % 1018,0 hPa 0,0 l/m 2 min 0 min 125 W/m 16,7 km/h (3 Bft)
08.12.2014 10:16 1,8 C 0,6 C 94 % 1018,0 hPa 0,0 l/m 2 min 0 min 128 W/m 16,7 km/h (3 Bft)
08.12.2014 10:18 1,8 C 0,6 C 94 % 1018,0 hPa 0,0 l/m 2 min 0 min 130 W/m 16,7 km/h (3 Bft)
08.12.2014 10:20 1,8 C 0,6 C 94 % 1018,0 hPa 0,0 l/m 2 min 0 min 134 W/m 14,6 km/h (3 Bft)
08.12.2014 10:22 1,9 C 0,6 C 94 % 1018,2 hPa 0,0 l/m 2 min 0 min 137 W/m 14,6 km/h (3 Bft)
08.12.2014 10:24 1,9 C 0,6 C 94 % 1018,0 hPa 0,0 l/m 2 min 0 min 140 W/m 10,5 km/h (2 Bft)
08.12.2014 10:26 2,0 C 1,1 C 94 % 1018,0 hPa 0,0 l/m 2 min 0 min 142 W/m 12,6 km/h (3 Bft)
08.12.2014 10:28 2,0 C 1,1 C 94 % 1018,0 hPa 0,0 l/m 2 min 0 min 144 W/m 18,8 km/h (3 Bft)
08.12.2014 10:30 2,1 C 1,1 C 94 % 1018,0 hPa 0,0 l/m 2 min 0 min 147 W/m 12,6 km/h (3 Bft)
08.12.2014 10:32 2,1 C 1,1 C 94 % 1018,1 hPa 0,0 l/m 2 min 0 min 149 W/m 14,6 km/h (3 Bft)
08.12.2014 10:34 2,2 C 1,1 C 94 % 1018,1 hPa 0,0 l/m 2 min 0 min 153 W/m 12,6 km/h (3 Bft)
08.12.2014 10:36 2,2 C 1,1 C 94 % 1018,1 hPa 0,0 l/m 2 min 0 min 155 W/m 14,6 km/h (3 Bft)
08.12.2014 10:38 2,2 C 1,1 C 94 % 1018,2 hPa 0,0 l/m 2 min 0 min 158 W/m 14,6 km/h (3 Bft)
08.12.2014 10:40 2,3 C 1,1 C 94 % 1018,2 hPa 0,0 l/m 2 min 0 min 161 W/m 14,6 km/h (3 Bft)
08.12.2014 10:42 2,3 C 1,1 C 93 % 1018,1 hPa 0,0 l/m 2 min 0 min 163 W/m 12,6 km/h (3 Bft)
08.12.2014 10:44 2,4 C 1,1 C 93 % 1018,1 hPa 0,0 l/m 2 min 0 min 165 W/m 8,4 km/h (2 Bft)
08.12.2014 10:46 2,4 C 1,1 C 93 % 1018,2 hPa 0,0 l/m 2 min 0 min 168 W/m 16,7 km/h (3 Bft)
08.12.2014 10:48 2,5 C 1,1 C 93 % 1018,2 hPa 0,0 l/m 2 min 0 min 170 W/m 14,6 km/h (3 Bft)
08.12.2014 10:50 2,6 C 1,1 C 93 % 1018,2 hPa 0,0 l/m 2 min 0 min 172 W/m 14,6 km/h (3 Bft)
08.12.2014 10:52 2,7 C 1,1 C 93 % 1018,2 hPa 0,0 l/m 2 min 0 min 175 W/m 10,5 km/h (2 Bft)
08.12.2014 10:54 2,7 C 1,1 C 93 % 1018,2 hPa 0,0 l/m 2 min 0 min 177 W/m 16,7 km/h (3 Bft)
08.12.2014 10:56 2,8 C 1,1 C 93 % 1018,1 hPa 0,0 l/m 2 min 0 min 179 W/m 16,7 km/h (3 Bft)
08.12.2014 10:58 2,8 C 1,7 C 93 % 1018,0 hPa 0,0 l/m 2 min 0 min 181 W/m 12,6 km/h (3 Bft)
08.12.2014 11:00 2,9 C 1,7 C 92 % 1018,0 hPa 0,0 l/m 2 min 0 min 183 W/m 10,5 km/h (2 Bft)
08.12.2014 11:02 3,0 C 1,7 C 92 % 1018,0 hPa 0,0 l/m 2 min 0 min 186 W/m 16,7 km/h (3 Bft)
08.12.2014 11:04 3,1 C 1,7 C 92 % 1018,0 hPa 0,0 l/m 2 min 0 min 189 W/m 10,5 km/h (2 Bft)
08.12.2014 11:06 3,1 C 1,7 C 92 % 1017,9 hPa 0,0 l/m 2 min 0 min 190 W/m 10,5 km/h (2 Bft)
08.12.2014 11:08 3,2 C 1,7 C 92 % 1017,9 hPa 0,0 l/m 2 min 0 min 193 W/m 8,4 km/h (2 Bft)
08.12.2014 11:10 3,3 C 1,7 C 92 % 1017,9 hPa 0,0 l/m 2 min 0 min 194 W/m 8,4 km/h (2 Bft)
08.12.2014 11:12 3,3 C 1,7 C 91 % 1017,9 hPa 0,0 l/m 2 min 0 min 196 W/m 14,6 km/h (3 Bft)
08.12.2014 11:14 3,4 C 1,7 C 92 % 1018,0 hPa 0,0 l/m 2 min 0 min 199 W/m 14,6 km/h (3 Bft)
08.12.2014 11:16 3,6 C 1,7 C 91 % 1017,9 hPa 0,0 l/m 2 min 0 min 200 W/m 10,5 km/h (2 Bft)
08.12.2014 11:18 3,6 C 1,7 C 91 % 1017,9 hPa 0,0 l/m 2 min 0 min 202 W/m 10,5 km/h (2 Bft)
08.12.2014 11:20 3,7 C 1,7 C 91 % 1017,9 hPa 0,0 l/m 2 min 0 min 203 W/m 14,6 km/h (3 Bft)
08.12.2014 11:22 3,8 C 1,7 C 91 % 1017,9 hPa 0,0 l/m 2 min 0 min 206 W/m 14,6 km/h (3 Bft)
08.12.2014 11:24 3,9 C 1,7 C 91 % 1017,9 hPa 0,0 l/m 2 min 0 min 207 W/m 10,5 km/h (2 Bft)
08.12.2014 11:26 3,9 C 1,7 C 90 % 1017,9 hPa 0,0 l/m 2 min 0 min 209 W/m 12,6 km/h (3 Bft)
08.12.2014 11:28 4,1 C 2,2 C 90 % 1017,8 hPa 0,0 l/m 2 min 0 min 211 W/m 12,6 km/h (3 Bft)
08.12.2014 11:30 4,2 C 2,2 C 90 % 1017,8 hPa 0,0 l/m 2 min 0 min 213 W/m 14,6 km/h (3 Bft)
08.12.2014 11:32 4,2 C 2,2 C 89 % 1017,8 hPa 0,0 l/m 2 min 0 min 214 W/m 14,6 km/h (3 Bft)
08.12.2014 11:34 4,3 C 2,2 C 89 % 1017,7 hPa 0,0 l/m 2 min 0 min 217 W/m 14,6 km/h (3 Bft)
08.12.2014 11:36 4,4 C 2,2 C 89 % 1017,7 hPa 0,0 l/m 2 min 0 min 218 W/m 10,5 km/h (2 Bft)
08.12.2014 11:38 4,4 C 2,2 C 88 % 1017,6 hPa 0,0 l/m 2 min 0 min 220 W/m 16,7 km/h (3 Bft)
08.12.2014 11:40 4,5 C 2,2 C 88 % 1017,7 hPa 0,0 l/m 2 min 0 min 222 W/m 16,7 km/h (3 Bft)
08.12.2014 11:42 4,6 C 2,2 C 88 % 1017,6 hPa 0,0 l/m 2 min 0 min 223 W/m 12,6 km/h (3 Bft)
08.12.2014 11:44 4,7 C 2,2 C 87 % 1017,7 hPa 0,0 l/m 2 min 0 min 223 W/m 16,7 km/h (3 Bft)
08.12.2014 11:46 4,7 C 2,2 C 87 % 1017,7 hPa 0,0 l/m 2 min 0 min 225 W/m 20,9 km/h (4 Bft)
08.12.2014 11:48 4,8 C 2,8 C 86 % 1017,7 hPa 0,0 l/m 2 min 0 min 228 W/m 18,8 km/h (3 Bft)
08.12.2014 11:50 4,9 C 2,8 C 86 % 1017,6 hPa 0,0 l/m 2 min 0 min 229 W/m 18,8 km/h (3 Bft)
08.12.2014 11:52 4,9 C 2,8 C 86 % 1017,6 hPa 0,0 l/m 2 min 0 min 230 W/m 14,6 km/h (3 Bft)
08.12.2014 11:54 5,0 C 2,8 C 85 % 1017,6 hPa 0,0 l/m 2 min 0 min 231 W/m 18,8 km/h (3 Bft)
08.12.2014 11:56 5,1 C 2,8 C 85 % 1017,6 hPa 0,0 l/m 2 min 0 min 231 W/m 12,6 km/h (3 Bft)
08.12.2014 11:58 5,1 C 2,8 C 85 % 1017,6 hPa 0,0 l/m 2 min 0 min 232 W/m 16,7 km/h (3 Bft)
08.12.2014 12:00 5,1 C 2,8 C 84 % 1017,5 hPa 0,0 l/m 2 min 0 min 230 W/m 14,6 km/h (3 Bft)
08.12.2014 12:02 5,2 C 2,8 C 84 % 1017,6 hPa 0,0 l/m 2 min 0 min 233 W/m 25,1 km/h (4 Bft)
08.12.2014 12:05 5,3 C 2,8 C 84 % 1017,5 hPa 0,0 l/m 2 min 0 min 234 W/m 23,0 km/h (4 Bft)
08.12.2014 12:06 5,3 C 2,8 C 84 % 1017,5 hPa 0,0 l/m 1 min 0 min 234 W/m 23,0 km/h (4 Bft)
08.12.2014 12:08 5,3 C 2,8 C 83 % 1017,5 hPa 0,0 l/m 2 min 0 min 237 W/m 12,6 km/h (3 Bft)
08.12.2014 12:10 5,4 C 3,3 C 83 % 1017,5 hPa 0,0 l/m 2 min 0 min 246 W/m 16,7 km/h (3 Bft)
08.12.2014 12:12 5,4 C 3,3 C 83 % 1017,5 hPa 0,0 l/m 2 min 0 min 244 W/m 12,6 km/h (3 Bft)
08.12.2014 12:14 5,5 C 3,3 C 83 % 1017,5 hPa 0,0 l/m 2 min 0 min 238 W/m 25,1 km/h (4 Bft)
08.12.2014 12:16 5,5 C 3,3 C 83 % 1017,5 hPa 0,0 l/m 2 min 0 min 237 W/m 18,8 km/h (3 Bft)
08.12.2014 12:18 5,6 C 3,3 C 82 % 1017,5 hPa 0,0 l/m 2 min 0 min 237 W/m 23,0 km/h (4 Bft)
08.12.2014 12:20 5,6 C 3,3 C 82 % 1017,5 hPa 0,0 l/m 2 min 0 min 237 W/m 18,8 km/h (3 Bft)
08.12.2014 12:22 5,7 C 3,3 C 82 % 1017,5 hPa 0,0 l/m 2 min 0 min 237 W/m 18,8 km/h (3 Bft)
08.12.2014 12:24 5,7 C 3,3 C 82 % 1017,4 hPa 0,0 l/m 2 min 0 min 242 W/m 23,0 km/h (4 Bft)
08.12.2014 12:26 5,7 C 3,3 C 81 % 1017,3 hPa 0,0 l/m 2 min 0 min 243 W/m 18,8 km/h (3 Bft)
08.12.2014 12:28 5,8 C 3,3 C 81 % 1017,3 hPa 0,0 l/m 2 min 0 min 242 W/m 20,9 km/h (4 Bft)
08.12.2014 12:30 5,8 C 3,9 C 81 % 1017,2 hPa 0,0 l/m 2 min 0 min 239 W/m 20,9 km/h (4 Bft)
08.12.2014 12:32 5,8 C 3,9 C 81 % 1017,3 hPa 0,0 l/m 2 min 0 min 237 W/m 14,6 km/h (3 Bft)
08.12.2014 12:34 5,9 C 3,9 C 81 % 1017,3 hPa 0,0 l/m 2 min 0 min 237 W/m 12,6 km/h (3 Bft)
08.12.2014 12:36 5,9 C 3,9 C 81 % 1017,3 hPa 0,0 l/m 2 min 0 min 235 W/m 20,9 km/h (4 Bft)
08.12.2014 12:38 5,9 C 3,9 C 81 % 1017,2 hPa 0,0 l/m 2 min 0 min 236 W/m 20,9 km/h (4 Bft)
08.12.2014 12:40 6,0 C 3,9 C 81 % 1017,2 hPa 0,0 l/m 2 min 0 min 234 W/m 18,8 km/h (3 Bft)
08.12.2014 12:42 6,1 C 4,4 C 81 % 1017,2 hPa 0,0 l/m 2 min 0 min 233 W/m 18,8 km/h (3 Bft)
08.12.2014 12:44 6,1 C 4,4 C 80 % 1017,2 hPa 0,0 l/m 2 min 0 min 234 W/m 23,0 km/h (4 Bft)
08.12.2014 12:46 6,1 C 4,4 C 80 % 1017,2 hPa 0,0 l/m 2 min 0 min 230 W/m 16,7 km/h (3 Bft)
08.12.2014 12:48 6,1 C 4,4 C 80 % 1017,1 hPa 0,0 l/m 2 min 0 min 230 W/m 14,6 km/h (3 Bft)
08.12.2014 12:50 6,2 C 4,4 C 80 % 1017,2 hPa 0,0 l/m 2 min 0 min 231 W/m 16,7 km/h (3 Bft)
08.12.2014 12:52 6,2 C 4,4 C 80 % 1017,2 hPa 0,0 l/m 2 min 0 min 230 W/m 27,2 km/h (4 Bft)
08.12.2014 12:54 6,2 C 4,4 C 79 % 1017,2 hPa 0,0 l/m 2 min 0 min 231 W/m 18,8 km/h (3 Bft)
08.12.2014 12:56 6,3 C 4,4 C 79 % 1017,1 hPa 0,0 l/m 2 min 0 min 233 W/m 18,8 km/h (3 Bft)
08.12.2014 12:58 6,3 C 4,4 C 80 % 1017,2 hPa 0,0 l/m 2 min 0 min 235 W/m 23,0 km/h (4 Bft)
08.12.2014 13:00 6,4 C 4,4 C 79 % 1017,1 hPa 0,0 l/m 2 min 0 min 223 W/m 20,9 km/h (4 Bft)
08.12.2014 13:02 6,4 C 4,4 C 79 % 1017,1 hPa 0,0 l/m 2 min 0 min 228 W/m 23,0 km/h (4 Bft)
08.12.2014 13:04 6,4 C 4,4 C 79 % 1017,2 hPa 0,0 l/m 2 min 0 min 228 W/m 16,7 km/h (3 Bft)
08.12.2014 13:06 6,4 C 4,4 C 79 % 1017,1 hPa 0,0 l/m 2 min 0 min 238 W/m 20,9 km/h (4 Bft)
08.12.2014 13:08 6,4 C 5,0 C 79 % 1017,1 hPa 0,0 l/m 2 min 0 min 217 W/m 20,9 km/h (4 Bft)
08.12.2014 13:10 6,4 C 4,4 C 79 % 1017,1 hPa 0,0 l/m 2 min 0 min 186 W/m 18,8 km/h (3 Bft)
08.12.2014 13:12 6,4 C 4,4 C 79 % 1017,1 hPa 0,0 l/m 2 min 0 min 179 W/m 16,7 km/h (3 Bft)
08.12.2014 13:14 6,4 C 4,4 C 79 % 1017,1 hPa 0,0 l/m 2 min 0 min 172 W/m 10,5 km/h (2 Bft)
08.12.2014 13:16 6,5 C 4,4 C 79 % 1017,0 hPa 0,0 l/m 2 min 0 min 184 W/m 20,9 km/h (4 Bft)
08.12.2014 13:18 6,4 C 4,4 C 79 % 1017,0 hPa 0,0 l/m 2 min 0 min 193 W/m 12,6 km/h (3 Bft)
08.12.2014 13:20 6,4 C 4,4 C 79 % 1017,1 hPa 0,0 l/m 2 min 0 min 197 W/m 23,0 km/h (4 Bft)
08.12.2014 13:22 6,4 C 4,4 C 79 % 1017,0 hPa 0,0 l/m 2 min 0 min 201 W/m 18,8 km/h (3 Bft)
08.12.2014 13:24 6,4 C 5,0 C 79 % 1017,0 hPa 0,0 l/m 2 min 0 min 208 W/m 12,6 km/h (3 Bft)
08.12.2014 13:26 6,5 C 5,0 C 79 % 1017,0 hPa 0,0 l/m 2 min 0 min 216 W/m 12,6 km/h (3 Bft)
08.12.2014 13:28 6,5 C 5,0 C 79 % 1017,0 hPa 0,0 l/m 2 min 0 min 221 W/m 16,7 km/h (3 Bft)
08.12.2014 13:30 6,6 C 5,0 C 79 % 1016,9 hPa 0,0 l/m 2 min 0 min 186 W/m 14,6 km/h (3 Bft)
08.12.2014 13:32 6,6 C 5,0 C 79 % 1016,9 hPa 0,0 l/m 2 min 0 min 138 W/m 18,8 km/h (3 Bft)
08.12.2014 13:34 6,6 C 5,0 C 79 % 1016,9 hPa 0,0 l/m 2 min 0 min 152 W/m 16,7 km/h (3 Bft)
08.12.2014 13:36 6,6 C 5,0 C 79 % 1016,9 hPa 0,0 l/m 2 min 0 min 163 W/m 18,8 km/h (3 Bft)
08.12.2014 13:38 6,6 C 5,0 C 79 % 1016,9 hPa 0,0 l/m 2 min 0 min 187 W/m 18,8 km/h (3 Bft)
08.12.2014 13:40 6,6 C 5,0 C 79 % 1016,9 hPa 0,0 l/m 2 min 0 min 162 W/m 10,5 km/h (2 Bft)
08.12.2014 13:42 6,6 C 5,0 C 79 % 1016,9 hPa 0,0 l/m 2 min 0 min 137 W/m 20,9 km/h (4 Bft)
08.12.2014 13:44 6,6 C 5,0 C 79 % 1016,8 hPa 0,0 l/m 2 min 0 min 132 W/m 18,8 km/h (3 Bft)
08.12.2014 13:46 6,5 C 5,0 C 79 % 1016,8 hPa 0,0 l/m 2 min 0 min 130 W/m 20,9 km/h (4 Bft)
08.12.2014 13:48 6,5 C 5,0 C 79 % 1016,8 hPa 0,0 l/m 2 min 0 min 131 W/m 20,9 km/h (4 Bft)
08.12.2014 13:50 6,4 C 5,0 C 79 % 1016,7 hPa 0,0 l/m 2 min 0 min 128 W/m 18,8 km/h (3 Bft)
08.12.2014 13:52 6,4 C 5,0 C 79 % 1016,7 hPa 0,0 l/m 2 min 0 min 124 W/m 20,9 km/h (4 Bft)
08.12.2014 13:54 6,4 C 5,0 C 79 % 1016,8 hPa 0,0 l/m 0 min 0 min 118 W/m 16,7 km/h (3 Bft)
08.12.2014 13:56 6,4 C 5,0 C 80 % 1016,7 hPa 0,0 l/m 0 min 0 min 110 W/m 14,6 km/h (3 Bft)
08.12.2014 13:58 6,4 C 4,4 C 80 % 1016,7 hPa 0,0 l/m 0 min 0 min 106 W/m 14,6 km/h (3 Bft)
08.12.2014 14:00 6,3 C 4,4 C 80 % 1016,7 hPa 0,0 l/m 2 min 0 min 122 W/m 16,7 km/h (3 Bft)
08.12.2014 14:02 6,3 C 5,0 C 80 % 1016,6 hPa 0,0 l/m 2 min 0 min 148 W/m 14,6 km/h (3 Bft)
08.12.2014 14:04 6,3 C 5,0 C 80 % 1016,5 hPa 0,0 l/m 2 min 0 min 137 W/m 23,0 km/h (4 Bft)
08.12.2014 14:06 6,3 C 4,4 C 80 % 1016,5 hPa 0,0 l/m 2 min 0 min 151 W/m 27,2 km/h (4 Bft)
08.12.2014 14:08 6,2 C 4,4 C 80 % 1016,5 hPa 0,0 l/m 0 min 0 min 111 W/m 16,7 km/h (3 Bft)
08.12.2014 14:10 6,2 C 4,4 C 80 % 1016,5 hPa 0,0 l/m 0 min 0 min 93 W/m 20,9 km/h (4 Bft)
08.12.2014 14:12 6,2 C 4,4 C 80 % 1016,5 hPa 0,0 l/m 0 min 0 min 91 W/m 23,0 km/h (4 Bft)
08.12.2014 14:14 6,2 C 4,4 C 80 % 1016,5 hPa 0,0 l/m 0 min 0 min 95 W/m 23,0 km/h (4 Bft)
08.12.2014 14:16 6,1 C 4,4 C 80 % 1016,5 hPa 0,0 l/m 0 min 0 min 101 W/m 27,2 km/h (4 Bft)
08.12.2014 14:18 6,1 C 4,4 C 80 % 1016,5 hPa 0,0 l/m 2 min 0 min 113 W/m 29,3 km/h (5 Bft)
08.12.2014 14:20 6,1 C 4,4 C 80 % 1016,5 hPa 0,0 l/m 2 min 0 min 116 W/m 23,0 km/h (4 Bft)
08.12.2014 14:22 6,1 C 4,4 C 80 % 1016,5 hPa 0,0 l/m 2 min 0 min 112 W/m 25,1 km/h (4 Bft)
08.12.2014 14:24 6,0 C 4,4 C 80 % 1016,5 hPa 0,0 l/m 2 min 0 min 104 W/m 25,1 km/h (4 Bft)
08.12.2014 14:26 6,0 C 4,4 C 80 % 1016,5 hPa 0,0 l/m 0 min 0 min 98 W/m 20,9 km/h (4 Bft)
08.12.2014 14:28 5,9 C 4,4 C 81 % 1016,5 hPa 0,0 l/m 0 min 0 min 96 W/m 18,8 km/h (3 Bft)
08.12.2014 14:30 5,9 C 4,4 C 81 % 1016,4 hPa 0,0 l/m 2 min 0 min 111 W/m 18,8 km/h (3 Bft)
08.12.2014 14:32 5,9 C 4,4 C 81 % 1016,4 hPa 0,0 l/m 2 min 0 min 113 W/m 23,0 km/h (4 Bft)
08.12.2014 14:34 5,9 C 4,4 C 81 % 1016,5 hPa 0,0 l/m 2 min 0 min 101 W/m 18,8 km/h (3 Bft)
08.12.2014 14:36 5,9 C 4,4 C 81 % 1016,4 hPa 0,0 l/m 0 min 0 min 83 W/m 23,0 km/h (4 Bft)
08.12.2014 14:38 5,9 C 4,4 C 81 % 1016,4 hPa 0,0 l/m 0 min 0 min 73 W/m 25,1 km/h (4 Bft)
08.12.2014 14:40 5,9 C 4,4 C 81 % 1016,5 hPa 0,0 l/m 0 min 0 min 65 W/m 29,3 km/h (5 Bft)
08.12.2014 14:42 5,8 C 4,4 C 81 % 1016,5 hPa 0,0 l/m 0 min 0 min 59 W/m 27,2 km/h (4 Bft)
08.12.2014 14:44 5,8 C 4,4 C 81 % 1016,5 hPa 0,0 l/m 0 min 0 min 56 W/m 27,2 km/h (4 Bft)
08.12.2014 14:46 5,8 C 4,4 C 81 % 1016,4 hPa 0,0 l/m 0 min 0 min 54 W/m 29,3 km/h (5 Bft)
08.12.2014 14:48 5,7 C 4,4 C 81 % 1016,5 hPa 0,0 l/m 0 min 0 min 50 W/m 25,1 km/h (4 Bft)
08.12.2014 14:50 5,7 C 3,9 C 81 % 1016,5 hPa 0,0 l/m 0 min 0 min 47 W/m 31,4 km/h (5 Bft)
08.12.2014 14:52 5,7 C 3,9 C 81 % 1016,5 hPa 0,0 l/m 0 min 0 min 48 W/m 25,1 km/h (4 Bft)
08.12.2014 14:54 5,7 C 3,9 C 82 % 1016,5 hPa 0,0 l/m 0 min 0 min 49 W/m 35,6 km/h (5 Bft)
08.12.2014 14:56 5,6 C 3,9 C 82 % 1016,5 hPa 0,0 l/m 0 min 0 min 50 W/m 29,3 km/h (5 Bft)
08.12.2014 14:58 5,6 C 3,9 C 82 % 1016,5 hPa 0,0 l/m 0 min 0 min 52 W/m 23,0 km/h (4 Bft)
08.12.2014 15:00 5,5 C 3,9 C 82 % 1016,5 hPa 0,0 l/m 0 min 0 min 54 W/m 27,2 km/h (4 Bft)
08.12.2014 15:02 5,5 C 3,9 C 82 % 1016,4 hPa 0,0 l/m 0 min 0 min 54 W/m 25,1 km/h (4 Bft)
08.12.2014 15:04 5,4 C 3,9 C 82 % 1016,4 hPa 0,0 l/m 0 min 0 min 54 W/m 27,2 km/h (4 Bft)
08.12.2014 15:06 5,4 C 3,9 C 83 % 1016,4 hPa 0,0 l/m 0 min 0 min 51 W/m 25,1 km/h (4 Bft)
08.12.2014 15:08 5,4 C 3,9 C 83 % 1016,4 hPa 0,0 l/m 0 min 0 min 47 W/m 20,9 km/h (4 Bft)
08.12.2014 15:10 5,4 C 3,9 C 83 % 1016,4 hPa 0,0 l/m 0 min 0 min 41 W/m 20,9 km/h (4 Bft)
08.12.2014 15:12 5,3 C 3,9 C 83 % 1016,4 hPa 0,0 l/m 0 min 0 min 37 W/m 18,8 km/h (3 Bft)
08.12.2014 15:14 5,3 C 3,9 C 83 % 1016,4 hPa 0,0 l/m 0 min 0 min 32 W/m 18,8 km/h (3 Bft)
08.12.2014 15:16 5,3 C 3,9 C 83 % 1016,4 hPa 0,0 l/m 0 min 0 min 29 W/m 14,6 km/h (3 Bft)
08.12.2014 15:18 5,3 C 3,9 C 83 % 1016,4 hPa 0,0 l/m 0 min 0 min 27 W/m 10,5 km/h (2 Bft)
08.12.2014 15:20 5,3 C 3,9 C 84 % 1016,3 hPa 0,0 l/m 0 min 0 min 24 W/m 12,6 km/h (3 Bft)
08.12.2014 15:22 5,2 C 3,9 C 84 % 1016,4 hPa 0,0 l/m 0 min 0 min 20 W/m 18,8 km/h (3 Bft)
08.12.2014 15:24 5,2 C 3,9 C 84 % 1016,3 hPa 0,0 l/m 0 min 0 min 18 W/m 14,6 km/h (3 Bft)
08.12.2014 15:26 5,2 C 3,9 C 84 % 1016,3 hPa 0,0 l/m 0 min 0 min 16 W/m 12,6 km/h (3 Bft)
08.12.2014 15:28 5,2 C 3,9 C 84 % 1016,3 hPa 0,0 l/m 0 min 0 min 13 W/m 12,6 km/h (3 Bft)
08.12.2014 15:30 5,2 C 3,9 C 84 % 1016,3 hPa 0,0 l/m 0 min 0 min 11 W/m 16,7 km/h (3 Bft)
08.12.2014 15:32 5,2 C 3,9 C 84 % 1016,4 hPa 0,0 l/m 0 min 0 min 11 W/m 14,6 km/h (3 Bft)
08.12.2014 15:34 5,2 C 3,9 C 84 % 1016,3 hPa 0,0 l/m 0 min 0 min 9 W/m 16,7 km/h (3 Bft)
08.12.2014 15:36 5,2 C 3,3 C 84 % 1016,4 hPa 0,0 l/m 0 min 2 min 7 W/m 18,8 km/h (3 Bft)
08.12.2014 15:38 5,1 C 3,3 C 85 % 1016,3 hPa 0,0 l/m 0 min 2 min 7 W/m 14,6 km/h (3 Bft)
08.12.2014 15:40 5,1 C 3,3 C 85 % 1016,3 hPa 0,0 l/m 0 min 2 min 6 W/m 16,7 km/h (3 Bft)
08.12.2014 15:42 5,1 C 3,3 C 85 % 1016,3 hPa 0,0 l/m 0 min 2 min 5 W/m 20,9 km/h (4 Bft)
08.12.2014 15:44 5,1 C 2,8 C 85 % 1016,3 hPa 0,0 l/m 0 min 2 min 1 W/m 29,3 km/h (5 Bft)
08.12.2014 15:46 5,1 C 2,8 C 85 % 1016,3 hPa 0,2 l/m 0 min 2 min 0 W/m 10,5 km/h (2 Bft)
08.12.2014 15:48 5,1 C 2,8 C 86 % 1016,4 hPa 0,0 l/m 0 min 2 min 0 W/m 16,7 km/h (3 Bft)
08.12.2014 15:50 5,0 C 2,8 C 86 % 1016,4 hPa 0,0 l/m 0 min 2 min 4 W/m 12,6 km/h (3 Bft)
08.12.2014 15:52 5,0 C 2,8 C 86 % 1016,4 hPa 0,2 l/m 0 min 2 min 5 W/m 16,7 km/h (3 Bft)
08.12.2014 15:54 4,9 C 2,8 C 86 % 1016,3 hPa 0,0 l/m 0 min 2 min 5 W/m 16,7 km/h (3 Bft)
08.12.2014 15:56 4,8 C 2,2 C 87 % 1016,3 hPa 0,0 l/m 0 min 2 min 1 W/m 12,6 km/h (3 Bft)
08.12.2014 15:58 4,8 C 2,8 C 87 % 1016,3 hPa 0,0 l/m 0 min 2 min 0 W/m 10,5 km/h (2 Bft)
08.12.2014 16:00 4,7 C 2,2 C 87 % 1016,3 hPa 0,2 l/m 0 min 2 min 0 W/m 8,4 km/h (2 Bft)
08.12.2014 16:02 4,7 C 2,2 C 87 % 1016,3 hPa 0,0 l/m 0 min 2 min 0 W/m 16,7 km/h (3 Bft)
08.12.2014 16:05 4,7 C 2,2 C 88 % 1016,3 hPa 0,2 l/m 0 min 2 min 0 W/m 12,6 km/h (3 Bft)
08.12.2014 16:08 4,6 C 2,2 C 88 % 1016,3 hPa 0,2 l/m 0 min 2 min 0 W/m 18,8 km/h (3 Bft)
08.12.2014 16:10 4,6 C 2,2 C 88 % 1016,3 hPa 0,0 l/m 0 min 2 min 0 W/m 29,3 km/h (5 Bft)
08.12.2014 16:12 4,4 C 2,2 C 88 % 1016,4 hPa 0,0 l/m 0 min 0 min 0 W/m 27,2 km/h (4 Bft)
08.12.2014 16:14 4,3 C 2,2 C 88 % 1016,3 hPa 0,2 l/m 0 min 2 min 0 W/m 27,2 km/h (4 Bft)
08.12.2014 16:16 4,3 C 2,2 C 89 % 1016,4 hPa 0,0 l/m 0 min 0 min 0 W/m 20,9 km/h (4 Bft)
08.12.2014 16:18 4,2 C 2,2 C 89 % 1016,3 hPa 0,2 l/m 0 min 0 min 0 W/m 23,0 km/h (4 Bft)
08.12.2014 16:20 4,2 C 2,2 C 89 % 1016,4 hPa 0,0 l/m 0 min 0 min 0 W/m 25,1 km/h (4 Bft)
08.12.2014 16:22 4,1 C 2,2 C 89 % 1016,4 hPa 0,2 l/m 0 min 0 min 0 W/m 18,8 km/h (3 Bft)
08.12.2014 16:24 4,0 C 2,2 C 90 % 1016,4 hPa 0,0 l/m 0 min 0 min 0 W/m 16,7 km/h (3 Bft)
08.12.2014 16:26 3,9 C 2,2 C 90 % 1016,4 hPa 0,0 l/m 0 min 0 min 0 W/m 18,8 km/h (3 Bft)
08.12.2014 16:28 3,9 C 2,2 C 90 % 1016,4 hPa 0,2 l/m 0 min 0 min 0 W/m 25,1 km/h (4 Bft)
08.12.2014 16:30 3,9 C 2,2 C 90 % 1016,3 hPa 0,0 l/m 0 min 0 min 0 W/m 20,9 km/h (4 Bft)
08.12.2014 16:32 3,8 C 2,2 C 90 % 1016,4 hPa 0,2 l/m 0 min 0 min 0 W/m 18,8 km/h (3 Bft)
08.12.2014 16:34 3,8 C 2,2 C 90 % 1016,3 hPa 0,0 l/m 0 min 0 min 0 W/m 12,6 km/h (3 Bft)
08.12.2014 16:36 3,7 C 2,2 C 91 % 1016,3 hPa 0,0 l/m 0 min 0 min 0 W/m 16,7 km/h (3 Bft)
08.12.2014 16:38 3,7 C 2,2 C 91 % 1016,3 hPa 0,2 l/m 0 min 0 min 0 W/m 14,6 km/h (3 Bft)
08.12.2014 16:40 3,7 C 2,2 C 91 % 1016,4 hPa 0,0 l/m 0 min 2 min 0 W/m 12,6 km/h (3 Bft)
08.12.2014 16:42 3,6 C 2,2 C 91 % 1016,4 hPa 0,0 l/m 0 min 0 min 0 W/m 8,4 km/h (2 Bft)
08.12.2014 16:44 3,6 C 2,2 C 91 % 1016,4 hPa 0,2 l/m 0 min 0 min 0 W/m 8,4 km/h (2 Bft)
08.12.2014 16:46 3,6 C 2,2 C 91 % 1016,4 hPa 0,0 l/m 0 min 2 min 0 W/m 8,4 km/h (2 Bft)
08.12.2014 16:48 3,6 C 2,2 C 91 % 1016,3 hPa 0,0 l/m 0 min 0 min 0 W/m 10,5 km/h (2 Bft)
08.12.2014 16:50 3,6 C 2,2 C 92 % 1016,4 hPa 0,0 l/m 0 min 2 min 0 W/m 12,6 km/h (3 Bft)
08.12.2014 16:52 3,6 C 2,2 C 92 % 1016,4 hPa 0,0 l/m 0 min 2 min 0 W/m 10,5 km/h (2 Bft)
08.12.2014 16:54 3,6 C 2,2 C 92 % 1016,3 hPa 0,2 l/m 0 min 0 min 0 W/m 12,6 km/h (3 Bft)
08.12.2014 16:56 3,5 C 2,2 C 92 % 1016,4 hPa 0,0 l/m 0 min 0 min 0 W/m 12,6 km/h (3 Bft)
08.12.2014 16:58 3,5 C 2,2 C 92 % 1016,4 hPa 0,0 l/m 0 min 0 min 0 W/m 14,6 km/h (3 Bft)
08.12.2014 17:00 3,5 C 2,2 C 92 % 1016,4 hPa 0,2 l/m 0 min 0 min 0 W/m 16,7 km/h (3 Bft)
08.12.2014 17:02 3,5 C 2,2 C 92 % 1016,4 hPa 0,0 l/m 0 min 0 min 0 W/m 18,8 km/h (3 Bft)
08.12.2014 17:05 3,5 C 2,2 C 92 % 1016,4 hPa 0,0 l/m 0 min 2 min 0 W/m 10,5 km/h (2 Bft)
08.12.2014 17:08 3,4 C 2,2 C 93 % 1016,5 hPa 0,0 l/m 0 min 2 min 0 W/m 10,5 km/h (2 Bft)
08.12.2014 17:10 3,4 C 2,2 C 93 % 1016,5 hPa 0,0 l/m 0 min 0 min 0 W/m 10,5 km/h (2 Bft)
08.12.2014 17:12 3,4 C 2,2 C 93 % 1016,5 hPa 0,0 l/m 0 min 0 min 0 W/m 10,5 km/h (2 Bft)
08.12.2014 17:14 3,4 C 2,2 C 93 % 1016,4 hPa 0,0 l/m 0 min 0 min 0 W/m 16,7 km/h (3 Bft)
08.12.2014 17:16 3,4 C 2,2 C 93 % 1016,5 hPa 0,0 l/m 0 min 0 min 0 W/m 14,6 km/h (3 Bft)
08.12.2014 17:18 3,4 C 2,2 C 93 % 1016,5 hPa 0,0 l/m 0 min 0 min 0 W/m 14,6 km/h (3 Bft)
08.12.2014 17:20 3,4 C 2,2 C 93 % 1016,5 hPa 0,0 l/m 0 min 0 min 0 W/m 16,7 km/h (3 Bft)
08.12.2014 17:22 3,4 C 1,7 C 93 % 1016,5 hPa 0,0 l/m 0 min 0 min 0 W/m 14,6 km/h (3 Bft)
08.12.2014 17:24 3,3 C 1,7 C 93 % 1016,6 hPa 0,0 l/m 0 min 0 min 0 W/m 16,7 km/h (3 Bft)
08.12.2014 17:26 3,3 C 1,7 C 93 % 1016,6 hPa 0,0 l/m 0 min 0 min 0 W/m 8,4 km/h (2 Bft)
08.12.2014 17:28 3,3 C 2,2 C 93 % 1016,6 hPa 0,0 l/m 0 min 0 min 0 W/m 6,3 km/h (2 Bft)
08.12.2014 17:30 3,3 C 2,2 C 93 % 1016,5 hPa 0,0 l/m 0 min 0 min 0 W/m 8,4 km/h (2 Bft)
08.12.2014 17:32 3,3 C 2,2 C 93 % 1016,5 hPa 0,0 l/m 0 min 0 min 0 W/m 8,4 km/h (2 Bft)
08.12.2014 17:34 3,3 C 2,2 C 93 % 1016,5 hPa 0,0 l/m 0 min 0 min 0 W/m 8,4 km/h (2 Bft)
08.12.2014 17:36 3,3 C 2,2 C 93 % 1016,5 hPa 0,0 l/m 0 min 0 min 0 W/m 10,5 km/h (2 Bft)
08.12.2014 17:38 3,3 C 2,2 C 94 % 1016,5 hPa 0,0 l/m 0 min 0 min 0 W/m 8,4 km/h (2 Bft)
08.12.2014 17:40 3,3 C 2,2 C 94 % 1016,5 hPa 0,0 l/m 0 min 0 min 0 W/m 14,6 km/h (3 Bft)
08.12.2014 17:42 3,3 C 2,2 C 94 % 1016,6 hPa 0,0 l/m 0 min 0 min 0 W/m 10,5 km/h (2 Bft)
08.12.2014 17:44 3,3 C 2,2 C 94 % 1016,6 hPa 0,0 l/m 0 min 0 min 0 W/m 6,3 km/h (2 Bft)
08.12.2014 17:46 3,2 C 2,2 C 94 % 1016,6 hPa 0,0 l/m 0 min 0 min 0 W/m 12,6 km/h (3 Bft)
08.12.2014 17:48 3,2 C 2,2 C 94 % 1016,5 hPa 0,0 l/m 0 min 0 min 0 W/m 16,7 km/h (3 Bft)
08.12.2014 17:50 3,2 C 2,2 C 94 % 1016,5 hPa 0,0 l/m 0 min 0 min 0 W/m 12,6 km/h (3 Bft)
08.12.2014 17:52 3,2 C 2,2 C 94 % 1016,6 hPa 0,0 l/m 0 min 0 min 0 W/m 12,6 km/h (3 Bft)
08.12.2014 17:54 3,3 C 2,2 C 94 % 1016,5 hPa 0,0 l/m 0 min 0 min 0 W/m 18,8 km/h (3 Bft)
08.12.2014 17:56 3,3 C 2,2 C 94 % 1016,6 hPa 0,0 l/m 0 min 0 min 0 W/m 14,6 km/h (3 Bft)
08.12.2014 17:58 3,3 C 2,2 C 94 % 1016,5 hPa 0,0 l/m 0 min 0 min 0 W/m 12,6 km/h (3 Bft)
08.12.2014 18:00 3,2 C 2,2 C 94 % 1016,5 hPa 0,0 l/m 0 min 0 min 0 W/m 12,6 km/h (3 Bft)
08.12.2014 18:02 3,2 C 2,2 C 94 % 1016,6 hPa 0,0 l/m 0 min 0 min 0 W/m 12,6 km/h (3 Bft)
08.12.2014 18:05 3,2 C 2,2 C 94 % 1016,5 hPa 0,0 l/m 0 min 0 min 0 W/m 8,4 km/h (2 Bft)
08.12.2014 18:08 3,3 C 2,2 C 94 % 1016,6 hPa 0,0 l/m 0 min 0 min 0 W/m 10,5 km/h (2 Bft)
08.12.2014 18:10 3,3 C 2,2 C 94 % 1016,7 hPa 0,0 l/m 0 min 2 min 0 W/m 14,6 km/h (3 Bft)
08.12.2014 18:12 3,2 C 2,2 C 94 % 1016,6 hPa 0,0 l/m 0 min 2 min 0 W/m 10,5 km/h (2 Bft)
08.12.2014 18:14 3,2 C 2,2 C 94 % 1016,7 hPa 0,0 l/m 0 min 2 min 0 W/m 16,7 km/h (3 Bft)
08.12.2014 18:16 3,2 C 2,2 C 94 % 1016,7 hPa 0,2 l/m 0 min 2 min 0 W/m 18,8 km/h (3 Bft)
08.12.2014 18:18 3,2 C 2,2 C 95 % 1016,7 hPa 0,0 l/m 0 min 2 min 0 W/m 10,5 km/h (2 Bft)
08.12.2014 18:20 3,2 C 2,2 C 95 % 1016,6 hPa 0,0 l/m 0 min 2 min 0 W/m 18,8 km/h (3 Bft)
08.12.2014 18:22 3,2 C 2,2 C 95 % 1016,7 hPa 0,0 l/m 0 min 2 min 0 W/m 14,6 km/h (3 Bft)
08.12.2014 18:24 3,3 C 2,2 C 95 % 1016,7 hPa 0,0 l/m 0 min 2 min 0 W/m 25,1 km/h (4 Bft)
08.12.2014 18:26 3,2 C 2,2 C 95 % 1016,7 hPa 0,0 l/m 0 min 2 min 0 W/m 25,1 km/h (4 Bft)
08.12.2014 18:28 3,2 C 2,2 C 95 % 1016,8 hPa 0,0 l/m 0 min 2 min 0 W/m 20,9 km/h (4 Bft)
08.12.2014 18:30 3,2 C 2,2 C 95 % 1016,8 hPa 0,0 l/m 0 min 2 min 0 W/m 18,8 km/h (3 Bft)
08.12.2014 18:32 3,2 C 2,2 C 95 % 1016,8 hPa 0,0 l/m 0 min 2 min 0 W/m 20,9 km/h (4 Bft)
08.12.2014 18:34 3,2 C 2,2 C 95 % 1016,8 hPa 0,0 l/m 0 min 2 min 0 W/m 18,8 km/h (3 Bft)
08.12.2014 18:36 3,2 C 1,7 C 95 % 1016,8 hPa 0,2 l/m 0 min 2 min 0 W/m 23,0 km/h (4 Bft)
08.12.2014 18:38 3,2 C 1,7 C 95 % 1016,8 hPa 0,0 l/m 0 min 2 min 0 W/m 14,6 km/h (3 Bft)
08.12.2014 18:40 3,1 C 1,7 C 95 % 1016,8 hPa 0,0 l/m 0 min 2 min 0 W/m 20,9 km/h (4 Bft)
08.12.2014 18:42 3,1 C 1,7 C 95 % 1016,9 hPa 0,0 l/m 0 min 2 min 0 W/m 14,6 km/h (3 Bft)
08.12.2014 18:44 3,1 C 1,7 C 95 % 1016,9 hPa 0,0 l/m 0 min 2 min 0 W/m 23,0 km/h (4 Bft)
08.12.2014 18:46 3,1 C 1,7 C 95 % 1016,9 hPa 0,0 l/m 0 min 2 min 0 W/m 16,7 km/h (3 Bft)
08.12.2014 18:48 3,1 C 1,7 C 95 % 1016,9 hPa 0,0 l/m 0 min 2 min 0 W/m 18,8 km/h (3 Bft)
08.12.2014 18:50 3,1 C 1,7 C 95 % 1016,9 hPa 0,0 l/m 0 min 2 min 0 W/m 14,6 km/h (3 Bft)
08.12.2014 18:52 3,0 C 1,7 C 95 % 1016,9 hPa 0,0 l/m 0 min 2 min 0 W/m 14,6 km/h (3 Bft)
08.12.2014 18:54 3,0 C 1,7 C 95 % 1016,9 hPa 0,0 l/m 0 min 2 min 0 W/m 16,7 km/h (3 Bft)
08.12.2014 18:56 3,0 C 1,7 C 95 % 1016,9 hPa 0,0 l/m 0 min 2 min 0 W/m 14,6 km/h (3 Bft)
08.12.2014 18:58 3,0 C 1,7 C 95 % 1016,9 hPa 0,0 l/m 0 min 2 min 0 W/m 16,7 km/h (3 Bft)
08.12.2014 19:00 3,0 C 1,7 C 95 % 1016,9 hPa 0,0 l/m 0 min 2 min 0 W/m 16,7 km/h (3 Bft)
08.12.2014 19:02 3,0 C 1,7 C 95 % 1017,0 hPa 0,0 l/m 0 min 2 min 0 W/m 14,6 km/h (3 Bft)
08.12.2014 19:05 3,0 C 1,7 C 95 % 1017,0 hPa 0,0 l/m 0 min 2 min 0 W/m 12,6 km/h (3 Bft)
08.12.2014 19:06 3,0 C 1,7 C 95 % 1017,0 hPa 0,0 l/m 0 min 1 min 0 W/m 12,6 km/h (3 Bft)
08.12.2014 19:08 3,0 C 1,7 C 95 % 1017,0 hPa 0,0 l/m 0 min 2 min 0 W/m 12,6 km/h (3 Bft)
08.12.2014 19:10 3,0 C 1,7 C 95 % 1017,1 hPa 0,0 l/m 0 min 2 min 0 W/m 10,5 km/h (2 Bft)
08.12.2014 19:12 3,0 C 2,2 C 95 % 1017,1 hPa 0,0 l/m 0 min 2 min 0 W/m 16,7 km/h (3 Bft)
08.12.2014 19:14 3,0 C 1,7 C 95 % 1017,2 hPa 0,0 l/m 0 min 2 min 0 W/m 10,5 km/h (2 Bft)
08.12.2014 19:16 3,0 C 1,7 C 95 % 1017,3 hPa 0,0 l/m 0 min 2 min 0 W/m 6,3 km/h (2 Bft)
08.12.2014 19:18 3,0 C 2,2 C 95 % 1017,3 hPa 0,0 l/m 0 min 2 min 0 W/m 8,4 km/h (2 Bft)
08.12.2014 19:20 3,0 C 2,2 C 95 % 1017,3 hPa 0,2 l/m 0 min 2 min 0 W/m 6,3 km/h (2 Bft)
08.12.2014 19:22 3,0 C 1,7 C 95 % 1017,3 hPa 0,0 l/m 0 min 2 min 0 W/m 10,5 km/h (2 Bft)
08.12.2014 19:24 3,0 C 1,7 C 95 % 1017,2 hPa 0,0 l/m 0 min 2 min 0 W/m 8,4 km/h (2 Bft)
08.12.2014 19:26 3,0 C 2,2 C 95 % 1017,2 hPa 0,0 l/m 0 min 2 min 0 W/m 8,4 km/h (2 Bft)
08.12.2014 19:28 3,0 C 2,2 C 95 % 1017,2 hPa 0,0 l/m 0 min 2 min 0 W/m 8,4 km/h (2 Bft)
08.12.2014 19:30 3,0 C 2,2 C 95 % 1017,3 hPa 0,0 l/m 0 min 2 min 0 W/m 6,3 km/h (2 Bft)
08.12.2014 19:32 3,0 C 2,2 C 95 % 1017,3 hPa 0,0 l/m 0 min 2 min 0 W/m 8,4 km/h (2 Bft)
08.12.2014 19:34 3,0 C 2,2 C 95 % 1017,3 hPa 0,0 l/m 0 min 2 min 0 W/m 8,4 km/h (2 Bft)
08.12.2014 19:36 3,0 C 2,2 C 95 % 1017,4 hPa 0,0 l/m 0 min 2 min 0 W/m 10,5 km/h (2 Bft)
08.12.2014 19:38 3,0 C 2,2 C 95 % 1017,3 hPa 0,0 l/m 0 min 2 min 0 W/m 6,3 km/h (2 Bft)
08.12.2014 19:40 3,0 C 2,2 C 95 % 1017,3 hPa 0,0 l/m 0 min 2 min 0 W/m 8,4 km/h (2 Bft)
08.12.2014 19:42 3,0 C 2,2 C 95 % 1017,3 hPa 0,0 l/m 0 min 0 min 0 W/m 8,4 km/h (2 Bft)
08.12.2014 19:44 3,1 C 2,2 C 95 % 1017,3 hPa 0,0 l/m 0 min 0 min 0 W/m 8,4 km/h (2 Bft)
08.12.2014 19:46 3,1 C 2,2 C 95 % 1017,3 hPa 0,0 l/m 0 min 0 min 0 W/m 10,5 km/h (2 Bft)
08.12.2014 19:48 3,1 C 2,2 C 95 % 1017,3 hPa 0,0 l/m 0 min 0 min 0 W/m 8,4 km/h (2 Bft)
08.12.2014 19:50 3,1 C 2,2 C 96 % 1017,3 hPa 0,0 l/m 0 min 0 min 0 W/m 8,4 km/h (2 Bft)
08.12.2014 19:52 3,1 C 2,2 C 96 % 1017,4 hPa 0,0 l/m 0 min 0 min 0 W/m 6,3 km/h (2 Bft)
08.12.2014 19:54 3,1 C 2,2 C 96 % 1017,3 hPa 0,0 l/m 0 min 0 min 0 W/m 6,3 km/h (2 Bft)
08.12.2014 19:56 3,1 C 2,2 C 96 % 1017,4 hPa 0,0 l/m 0 min 0 min 0 W/m 8,4 km/h (2 Bft)
08.12.2014 19:58 3,1 C 2,2 C 96 % 1017,4 hPa 0,0 l/m 0 min 0 min 0 W/m 8,4 km/h (2 Bft)
08.12.2014 20:00 3,1 C 2,2 C 96 % 1017,5 hPa 0,0 l/m 0 min 0 min 0 W/m 8,4 km/h (2 Bft)
08.12.2014 20:02 3,1 C 2,2 C 96 % 1017,5 hPa 0,0 l/m 0 min 0 min 0 W/m 10,5 km/h (2 Bft)
08.12.2014 20:05 3,1 C 2,2 C 96 % 1017,4 hPa 0,0 l/m 0 min 0 min 0 W/m 6,3 km/h (2 Bft)
08.12.2014 20:08 3,1 C 2,2 C 96 % 1017,5 hPa 0,0 l/m 0 min 0 min 0 W/m 6,3 km/h (2 Bft)
08.12.2014 20:10 3,1 C 2,2 C 96 % 1017,5 hPa 0,0 l/m 0 min 0 min 0 W/m 4,2 km/h (1 Bft)
08.12.2014 20:12 3,1 C 2,2 C 96 % 1017,5 hPa 0,0 l/m 0 min 0 min 0 W/m 10,5 km/h (2 Bft)
08.12.2014 20:14 3,1 C 2,2 C 96 % 1017,5 hPa 0,0 l/m 0 min 0 min 0 W/m 10,5 km/h (2 Bft)
08.12.2014 20:16 3,1 C 2,2 C 96 % 1017,4 hPa 0,0 l/m 0 min 0 min 0 W/m 10,5 km/h (2 Bft)
08.12.2014 20:18 3,1 C 2,2 C 96 % 1017,6 hPa 0,0 l/m 0 min 0 min 0 W/m 8,4 km/h (2 Bft)
08.12.2014 20:20 3,1 C 2,2 C 96 % 1017,5 hPa 0,0 l/m 0 min 0 min 0 W/m 8,4 km/h (2 Bft)
08.12.2014 20:22 3,1 C 2,2 C 96 % 1017,6 hPa 0,0 l/m 0 min 0 min 0 W/m 10,5 km/h (2 Bft)
08.12.2014 20:24 3,1 C 2,2 C 96 % 1017,6 hPa 0,0 l/m 0 min 0 min 0 W/m 10,5 km/h (2 Bft)
08.12.2014 20:26 3,1 C 2,2 C 96 % 1017,6 hPa 0,0 l/m 0 min 0 min 0 W/m 10,5 km/h (2 Bft)
08.12.2014 20:28 3,1 C 2,2 C 96 % 1017,6 hPa 0,0 l/m 0 min 0 min 0 W/m 14,6 km/h (3 Bft)
08.12.2014 20:30 3,1 C 2,2 C 96 % 1017,7 hPa 0,0 l/m 0 min 0 min 0 W/m 12,6 km/h (3 Bft)
08.12.2014 20:32 3,1 C 2,2 C 96 % 1017,7 hPa 0,0 l/m 0 min 0 min 0 W/m 10,5 km/h (2 Bft)
08.12.2014 20:34 3,1 C 2,2 C 96 % 1017,7 hPa 0,0 l/m 0 min 0 min 0 W/m 12,6 km/h (3 Bft)
08.12.2014 20:36 3,1 C 2,2 C 96 % 1017,7 hPa 0,0 l/m 0 min 0 min 0 W/m 14,6 km/h (3 Bft)
08.12.2014 20:38 3,1 C 2,2 C 96 % 1017,8 hPa 0,0 l/m 0 min 0 min 0 W/m 14,6 km/h (3 Bft)
08.12.2014 20:40 3,1 C 1,7 C 96 % 1017,7 hPa 0,0 l/m 0 min 0 min 0 W/m 14,6 km/h (3 Bft)
08.12.2014 20:42 3,1 C 1,7 C 96 % 1017,8 hPa 0,0 l/m 0 min 0 min 0 W/m 16,7 km/h (3 Bft)
08.12.2014 20:44 3,1 C 1,7 C 96 % 1017,7 hPa 0,0 l/m 0 min 0 min 0 W/m 14,6 km/h (3 Bft)
08.12.2014 20:46 3,1 C 1,7 C 96 % 1017,8 hPa 0,0 l/m 0 min 0 min 0 W/m 10,5 km/h (2 Bft)
08.12.2014 20:48 3,0 C 1,7 C 96 % 1017,8 hPa 0,0 l/m 0 min 0 min 0 W/m 12,6 km/h (3 Bft)
08.12.2014 20:50 3,0 C 1,7 C 96 % 1017,9 hPa 0,0 l/m 0 min 0 min 0 W/m 12,6 km/h (3 Bft)
08.12.2014 20:52 3,0 C 1,7 C 96 % 1017,8 hPa 0,0 l/m 0 min 0 min 0 W/m 12,6 km/h (3 Bft)
08.12.2014 20:54 3,0 C 1,7 C 96 % 1017,8 hPa 0,0 l/m 0 min 0 min 0 W/m 14,6 km/h (3 Bft)
08.12.2014 20:56 3,0 C 1,7 C 96 % 1017,8 hPa 0,0 l/m 0 min 0 min 0 W/m 12,6 km/h (3 Bft)
08.12.2014 20:58 2,9 C 1,7 C 96 % 1017,9 hPa 0,0 l/m 0 min 0 min 0 W/m 12,6 km/h (3 Bft)
08.12.2014 21:00 2,9 C 1,7 C 96 % 1017,9 hPa 0,0 l/m 0 min 0 min 0 W/m 14,6 km/h (3 Bft)
08.12.2014 21:02 2,9 C 1,7 C 96 % 1017,9 hPa 0,0 l/m 0 min 0 min 0 W/m 14,6 km/h (3 Bft)
08.12.2014 21:05 2,9 C 1,7 C 96 % 1018,0 hPa 0,0 l/m 0 min 0 min 0 W/m 12,6 km/h (3 Bft)
08.12.2014 21:08 2,9 C 1,7 C 96 % 1018,1 hPa 0,0 l/m 0 min 0 min 0 W/m 14,6 km/h (3 Bft)
08.12.2014 21:10 2,9 C 1,7 C 96 % 1018,0 hPa 0,0 l/m 0 min 0 min 0 W/m 18,8 km/h (3 Bft)
08.12.2014 21:12 2,9 C 1,7 C 96 % 1018,2 hPa 0,0 l/m 0 min 0 min 0 W/m 16,7 km/h (3 Bft)
08.12.2014 21:14 2,8 C 1,7 C 96 % 1018,1 hPa 0,0 l/m 0 min 0 min 0 W/m 10,5 km/h (2 Bft)
08.12.2014 21:16 2,8 C 1,7 C 96 % 1018,3 hPa 0,0 l/m 0 min 0 min 0 W/m 14,6 km/h (3 Bft)
08.12.2014 21:18 2,8 C 1,7 C 96 % 1018,2 hPa 0,0 l/m 0 min 0 min 0 W/m 14,6 km/h (3 Bft)
08.12.2014 21:20 2,8 C 1,7 C 96 % 1018,3 hPa 0,0 l/m 0 min 0 min 0 W/m 12,6 km/h (3 Bft)
08.12.2014 21:22 2,8 C 1,7 C 96 % 1018,3 hPa 0,0 l/m 0 min 0 min 0 W/m 14,6 km/h (3 Bft)
08.12.2014 21:24 2,8 C 1,7 C 96 % 1018,3 hPa 0,0 l/m 0 min 0 min 0 W/m 14,6 km/h (3 Bft)
08.12.2014 21:26 2,8 C 1,7 C 96 % 1018,3 hPa 0,0 l/m 0 min 0 min 0 W/m 14,6 km/h (3 Bft)
08.12.2014 21:28 2,8 C 1,7 C 96 % 1018,2 hPa 0,0 l/m 0 min 0 min 0 W/m 10,5 km/h (2 Bft)
08.12.2014 21:30 2,8 C 1,7 C 96 % 1018,2 hPa 0,0 l/m 0 min 0 min 0 W/m 14,6 km/h (3 Bft)
08.12.2014 21:32 2,8 C 1,7 C 96 % 1018,2 hPa 0,0 l/m 0 min 0 min 0 W/m 14,6 km/h (3 Bft)
08.12.2014 21:34 2,8 C 1,7 C 96 % 1018,2 hPa 0,0 l/m 0 min 0 min 0 W/m 10,5 km/h (2 Bft)
08.12.2014 21:36 2,8 C 1,7 C 96 % 1018,3 hPa 0,0 l/m 0 min 0 min 0 W/m 10,5 km/h (2 Bft)
08.12.2014 21:38 2,7 C 1,7 C 96 % 1018,3 hPa 0,0 l/m 0 min 0 min 0 W/m 12,6 km/h (3 Bft)
08.12.2014 21:40 2,8 C 1,7 C 96 % 1018,3 hPa 0,0 l/m 0 min 0 min 0 W/m 10,5 km/h (2 Bft)
08.12.2014 21:42 2,7 C 1,7 C 96 % 1018,3 hPa 0,0 l/m 0 min 0 min 0 W/m 8,4 km/h (2 Bft)
08.12.2014 21:44 2,7 C 1,7 C 96 % 1018,4 hPa 0,0 l/m 0 min 0 min 0 W/m 14,6 km/h (3 Bft)
08.12.2014 21:46 2,7 C 1,7 C 96 % 1018,3 hPa 0,0 l/m 0 min 0 min 0 W/m 12,6 km/h (3 Bft)
08.12.2014 21:48 2,7 C 1,7 C 96 % 1018,3 hPa 0,0 l/m 0 min 0 min 0 W/m 8,4 km/h (2 Bft)
08.12.2014 21:50 2,7 C 1,7 C 96 % 1018,3 hPa 0,0 l/m 0 min 0 min 0 W/m 10,5 km/h (2 Bft)
08.12.2014 21:52 2,7 C 1,7 C 96 % 1018,4 hPa 0,0 l/m 0 min 0 min 0 W/m 12,6 km/h (3 Bft)
08.12.2014 21:54 2,7 C 1,7 C 96 % 1018,4 hPa 0,0 l/m 0 min 0 min 0 W/m 12,6 km/h (3 Bft)
08.12.2014 21:56 2,7 C 1,7 C 96 % 1018,4 hPa 0,0 l/m 0 min 0 min 0 W/m 14,6 km/h (3 Bft)
08.12.2014 21:58 2,7 C 1,7 C 96 % 1018,3 hPa 0,0 l/m 0 min 0 min 0 W/m 16,7 km/h (3 Bft)
08.12.2014 22:00 2,7 C 1,7 C 96 % 1018,3 hPa 0,0 l/m 0 min 0 min 0 W/m 12,6 km/h (3 Bft)
08.12.2014 22:02 2,7 C 1,7 C 96 % 1018,4 hPa 0,0 l/m 0 min 0 min 0 W/m 12,6 km/h (3 Bft)
08.12.2014 22:05 2,7 C 1,7 C 96 % 1018,4 hPa 0,0 l/m 0 min 0 min 0 W/m 12,6 km/h (3 Bft)
08.12.2014 22:08 2,7 C 1,7 C 96 % 1018,4 hPa 0,0 l/m 0 min 0 min 0 W/m 12,6 km/h (3 Bft)
08.12.2014 22:10 2,7 C 1,7 C 96 % 1018,6 hPa 0,0 l/m 0 min 0 min 0 W/m 14,6 km/h (3 Bft)
08.12.2014 22:12 2,7 C 1,7 C 96 % 1018,6 hPa 0,0 l/m 0 min 0 min 0 W/m 16,7 km/h (3 Bft)
08.12.2014 22:14 2,7 C 1,7 C 96 % 1018,7 hPa 0,0 l/m 0 min 0 min 0 W/m 12,6 km/h (3 Bft)
08.12.2014 22:16 2,7 C 1,7 C 96 % 1018,6 hPa 0,0 l/m 0 min 0 min 0 W/m 10,5 km/h (2 Bft)
08.12.2014 22:18 2,7 C 1,7 C 96 % 1018,6 hPa 0,0 l/m 0 min 0 min 0 W/m 14,6 km/h (3 Bft)
08.12.2014 22:20 2,7 C 1,7 C 96 % 1018,6 hPa 0,0 l/m 0 min 0 min 0 W/m 14,6 km/h (3 Bft)
08.12.2014 22:22 2,7 C 1,7 C 96 % 1018,6 hPa 0,0 l/m 0 min 0 min 0 W/m 12,6 km/h (3 Bft)
08.12.2014 22:24 2,7 C 1,7 C 96 % 1018,7 hPa 0,0 l/m 0 min 0 min 0 W/m 12,6 km/h (3 Bft)
08.12.2014 22:26 2,7 C 1,7 C 96 % 1018,7 hPa 0,0 l/m 0 min 0 min 0 W/m 14,6 km/h (3 Bft)
08.12.2014 22:28 2,7 C 1,7 C 96 % 1018,7 hPa 0,0 l/m 0 min 0 min 0 W/m 10,5 km/h (2 Bft)
08.12.2014 22:30 2,7 C 1,7 C 96 % 1018,7 hPa 0,0 l/m 0 min 0 min 0 W/m 12,6 km/h (3 Bft)
08.12.2014 22:32 2,7 C 1,7 C 96 % 1018,7 hPa 0,0 l/m 0 min 0 min 0 W/m 12,6 km/h (3 Bft)
08.12.2014 22:34 2,7 C 1,7 C 96 % 1018,7 hPa 0,0 l/m 0 min 0 min 0 W/m 12,6 km/h (3 Bft)
08.12.2014 22:36 2,7 C 1,7 C 96 % 1018,8 hPa 0,0 l/m 0 min 0 min 0 W/m 16,7 km/h (3 Bft)
08.12.2014 22:38 2,7 C 1,7 C 96 % 1018,9 hPa 0,0 l/m 0 min 0 min 0 W/m 12,6 km/h (3 Bft)
08.12.2014 22:40 2,7 C 1,7 C 96 % 1018,9 hPa 0,0 l/m 0 min 0 min 0 W/m 8,4 km/h (2 Bft)
08.12.2014 22:42 2,7 C 1,7 C 96 % 1018,9 hPa 0,0 l/m 0 min 0 min 0 W/m 10,5 km/h (2 Bft)
08.12.2014 22:44 2,7 C 1,7 C 96 % 1018,8 hPa 0,0 l/m 0 min 0 min 0 W/m 10,5 km/h (2 Bft)
08.12.2014 22:46 2,7 C 1,7 C 96 % 1018,8 hPa 0,0 l/m 0 min 0 min 0 W/m 10,5 km/h (2 Bft)
08.12.2014 22:48 2,7 C 1,7 C 96 % 1018,9 hPa 0,0 l/m 0 min 0 min 0 W/m 12,6 km/h (3 Bft)
08.12.2014 22:50 2,7 C 1,7 C 96 % 1019,0 hPa 0,0 l/m 0 min 0 min 0 W/m 10,5 km/h (2 Bft)
08.12.2014 22:52 2,7 C 1,7 C 96 % 1019,0 hPa 0,0 l/m 0 min 0 min 0 W/m 10,5 km/h (2 Bft)
08.12.2014 22:54 2,7 C 1,7 C 96 % 1019,0 hPa 0,0 l/m 0 min 0 min 0 W/m 14,6 km/h (3 Bft)
08.12.2014 22:56 2,7 C 1,7 C 96 % 1019,0 hPa 0,0 l/m 0 min 0 min 0 W/m 14,6 km/h (3 Bft)
08.12.2014 22:58 2,7 C 1,7 C 96 % 1019,1 hPa 0,0 l/m 0 min 0 min 0 W/m 16,7 km/h (3 Bft)
08.12.2014 23:00 2,7 C 1,7 C 96 % 1019,1 hPa 0,0 l/m 0 min 0 min 0 W/m 10,5 km/h (2 Bft)
08.12.2014 23:02 2,7 C 1,7 C 96 % 1019,1 hPa 0,0 l/m 0 min 0 min 0 W/m 12,6 km/h (3 Bft)
08.12.2014 23:05 2,7 C 1,7 C 96 % 1019,1 hPa 0,0 l/m 0 min 0 min 0 W/m 14,6 km/h (3 Bft)
08.12.2014 23:08 2,7 C 1,7 C 96 % 1019,1 hPa 0,0 l/m 0 min 0 min 0 W/m 16,7 km/h (3 Bft)
08.12.2014 23:10 2,7 C 1,7 C 96 % 1019,1 hPa 0,0 l/m 0 min 0 min 0 W/m 18,8 km/h (3 Bft)
08.12.2014 23:12 2,6 C 1,7 C 96 % 1019,1 hPa 0,0 l/m 0 min 0 min 0 W/m 14,6 km/h (3 Bft)
08.12.2014 23:14 2,6 C 1,7 C 96 % 1019,1 hPa 0,0 l/m 0 min 0 min 0 W/m 14,6 km/h (3 Bft)
08.12.2014 23:16 2,6 C 1,7 C 96 % 1019,2 hPa 0,0 l/m 0 min 0 min 0 W/m 10,5 km/h (2 Bft)
08.12.2014 23:18 2,6 C 1,7 C 96 % 1019,2 hPa 0,0 l/m 0 min 0 min 0 W/m 12,6 km/h (3 Bft)
08.12.2014 23:20 2,6 C 1,7 C 96 % 1019,2 hPa 0,0 l/m 0 min 0 min 0 W/m 16,7 km/h (3 Bft)
08.12.2014 23:22 2,6 C 1,7 C 97 % 1019,2 hPa 0,0 l/m 0 min 0 min 0 W/m 12,6 km/h (3 Bft)
08.12.2014 23:24 2,6 C 1,7 C 96 % 1019,2 hPa 0,0 l/m 0 min 0 min 0 W/m 12,6 km/h (3 Bft)
08.12.2014 23:26 2,6 C 1,7 C 97 % 1019,3 hPa 0,0 l/m 0 min 0 min 0 W/m 14,6 km/h (3 Bft)
08.12.2014 23:28 2,6 C 1,7 C 97 % 1019,3 hPa 0,0 l/m 0 min 0 min 0 W/m 12,6 km/h (3 Bft)
08.12.2014 23:30 2,6 C 1,7 C 97 % 1019,3 hPa 0,0 l/m 0 min 0 min 0 W/m 12,6 km/h (3 Bft)
08.12.2014 23:32 2,6 C 1,7 C 97 % 1019,3 hPa 0,0 l/m 0 min 0 min 0 W/m 8,4 km/h (2 Bft)
08.12.2014 23:34 2,6 C 1,7 C 97 % 1019,3 hPa 0,0 l/m 0 min 0 min 0 W/m 10,5 km/h (2 Bft)
08.12.2014 23:36 2,6 C 1,7 C 97 % 1019,3 hPa 0,0 l/m 0 min 0 min 0 W/m 12,6 km/h (3 Bft)
08.12.2014 23:38 2,6 C 1,7 C 97 % 1019,3 hPa 0,0 l/m 0 min 0 min 0 W/m 6,3 km/h (2 Bft)
08.12.2014 23:40 2,6 C 1,7 C 97 % 1019,3 hPa 0,0 l/m 0 min 0 min 0 W/m 8,4 km/h (2 Bft)
08.12.2014 23:42 2,6 C 1,7 C 97 % 1019,3 hPa 0,0 l/m 0 min 0 min 0 W/m 8,4 km/h (2 Bft)
08.12.2014 23:44 2,6 C 1,7 C 97 % 1019,4 hPa 0,0 l/m 0 min 0 min 0 W/m 8,4 km/h (2 Bft)
08.12.2014 23:46 2,6 C 1,7 C 97 % 1019,4 hPa 0,0 l/m 0 min 0 min 0 W/m 8,4 km/h (2 Bft)
08.12.2014 23:48 2,6 C 1,7 C 97 % 1019,4 hPa 0,0 l/m 0 min 0 min 0 W/m 10,5 km/h (2 Bft)
08.12.2014 23:50 2,6 C 1,7 C 97 % 1019,4 hPa 0,0 l/m 0 min 0 min 0 W/m 10,5 km/h (2 Bft)
08.12.2014 23:52 2,6 C 1,7 C 97 % 1019,5 hPa 0,0 l/m 0 min 0 min 0 W/m 16,7 km/h (3 Bft)
08.12.2014 23:54 2,6 C 1,7 C 97 % 1019,5 hPa 0,0 l/m 0 min 0 min 0 W/m 14,6 km/h (3 Bft)
08.12.2014 23:56 2,6 C 1,7 C 97 % 1019,5 hPa 0,0 l/m 0 min 0 min 0 W/m 12,6 km/h (3 Bft)
08.12.2014 23:58 2,6 C 1,7 C 97 % 1019,5 hPa 0,0 l/m 0 min 0 min 0 W/m 14,6 km/h (3 Bft)
_ Min-Zeit 08:16 07:50 12:54 15:20 - - - - 20:10
Minimum _ 1,1 C -0,6 C 79 % 1016,3 hPa - - - - 4,2 km/h (1 Bft)
_ Max-Zeit 13:30 13:08 23:22 23:52 03:30 08:40 15:36 12:10 14:54
Maximum _ 6,6 C 5,0 C 97 % 1019,5 hPa 0,2 l/m 2 min 2 min 246 W/m 35,6 km/h
W-SW (5 Bft)
Durchschnitt _ 3,2 C 1,8 C 93 % 1017,6 hPa #3,6 l/m #4:55 h #2:19 h 125 W/m 14,3 km/h (3 Bft)
© 2015 W. Hausmann